<?xml version="1.0" encoding="UTF-8" standalone="no" ?><gpx xmlns="http://www.topografix.com/GPX/1/1" xmlns:gpxx="http://www.garmin.com/xmlschemas/GpxExtensions/v3" xmlns:wptx1="http://www.garmin.com/xmlschemas/WaypointExtension/v1" xmlns:gpxtpx="http://www.garmin.com/xmlschemas/TrackPointExtension/v1" creator="GuideVTT.com" version="1.1" xmlns:xsi="http://www.w3.org/2001/XMLSchema-instance" xsi:schemaLocation="http://www.topografix.com/GPX/1/1 http://www.topografix.com/GPX/1/1/gpx.xsd http://www.garmin.com/xmlschemas/GpxExtensions/v3 http://www8.garmin.com/xmlschemas/GpxExtensionsv3.xsd http://www.garmin.com/xmlschemas/WaypointExtension/v1 http://www8.garmin.com/xmlschemas/WaypointExtensionv1.xsd http://www.garmin.com/xmlschemas/TrackPointExtension/v1 http://www.garmin.com/xmlschemas/TrackPointExtensionv1.xsd">
<metadata><link href="http://www.garmin.com"><text>Garmin International</text></link><time>2013-06-22T15:13:50Z</time></metadata>
<trk><name>2021-07-03_0949__20210703_0949.gpx</name><extensions><gpxx:TrackExtension><gpxx:DisplayColor>Cyan</gpxx:DisplayColor></gpxx:TrackExtension></extensions><trkseg>
<trkpt lat="48.9508810" lon="3.1262526"><ele></ele><time>2022-6-1T15:30:33Z</time></trkpt>
<trkpt lat="48.9507034" lon="3.1263495"><ele></ele><time>2022-6-1T15:30:36Z</time></trkpt>
<trkpt lat="48.9507779" lon="3.1266407"><ele></ele><time>2022-6-1T15:30:39Z</time></trkpt>
<trkpt lat="48.9508664" lon="3.1268916"><ele></ele><time>2022-6-1T15:30:42Z</time></trkpt>
<trkpt lat="48.9509533" lon="3.1271398"><ele></ele><time>2022-6-1T15:30:45Z</time></trkpt>
<trkpt lat="48.9510304" lon="3.1274057"><ele></ele><time>2022-6-1T15:30:48Z</time></trkpt>
<trkpt lat="48.9509987" lon="3.1276901"><ele></ele><time>2022-6-1T15:30:51Z</time></trkpt>
<trkpt lat="48.9508534" lon="3.1278795"><ele></ele><time>2022-6-1T15:30:54Z</time></trkpt>
<trkpt lat="48.9506954" lon="3.1280495"><ele></ele><time>2022-6-1T15:30:57Z</time></trkpt>
<trkpt lat="48.9505212" lon="3.1282123"><ele></ele><time>2022-6-1T15:31:0Z</time></trkpt>
<trkpt lat="48.9503709" lon="3.1283825"><ele></ele><time>2022-6-1T15:31:3Z</time></trkpt>
<trkpt lat="48.9502522" lon="3.1286187"><ele></ele><time>2022-6-1T15:31:6Z</time></trkpt>
<trkpt lat="48.9501149" lon="3.1288238"><ele></ele><time>2022-6-1T15:31:9Z</time></trkpt>
<trkpt lat="48.9500191" lon="3.1290945"><ele></ele><time>2022-6-1T15:31:12Z</time></trkpt>
<trkpt lat="48.9498929" lon="3.1292961"><ele></ele><time>2022-6-1T15:31:15Z</time></trkpt>
<trkpt lat="48.9496937" lon="3.1293239"><ele></ele><time>2022-6-1T15:31:18Z</time></trkpt>
<trkpt lat="48.9495185" lon="3.1293955"><ele></ele><time>2022-6-1T15:31:21Z</time></trkpt>
<trkpt lat="48.9493550" lon="3.1295373"><ele></ele><time>2022-6-1T15:31:24Z</time></trkpt>
<trkpt lat="48.9492039" lon="3.1297011"><ele></ele><time>2022-6-1T15:31:27Z</time></trkpt>
<trkpt lat="48.9490758" lon="3.1298982"><ele></ele><time>2022-6-1T15:31:30Z</time></trkpt>
<trkpt lat="48.9489433" lon="3.1301249"><ele></ele><time>2022-6-1T15:31:33Z</time></trkpt>
<trkpt lat="48.9489568" lon="3.1304052"><ele></ele><time>2022-6-1T15:31:36Z</time></trkpt>
<trkpt lat="48.9491269" lon="3.1305359"><ele></ele><time>2022-6-1T15:31:39Z</time></trkpt>
<trkpt lat="48.9492115" lon="3.1307973"><ele></ele><time>2022-6-1T15:31:42Z</time></trkpt>
<trkpt lat="48.9490965" lon="3.1310826"><ele></ele><time>2022-6-1T15:31:45Z</time></trkpt>
<trkpt lat="48.9489922" lon="3.1313172"><ele></ele><time>2022-6-1T15:31:48Z</time></trkpt>
<trkpt lat="48.9491336" lon="3.1310910"><ele></ele><time>2022-6-1T15:31:51Z</time></trkpt>
<trkpt lat="48.9492470" lon="3.1308588"><ele></ele><time>2022-6-1T15:31:54Z</time></trkpt>
<trkpt lat="48.9494388" lon="3.1308038"><ele></ele><time>2022-6-1T15:31:57Z</time></trkpt>
<trkpt lat="48.9496030" lon="3.1309546"><ele></ele><time>2022-6-1T15:32:0Z</time></trkpt>
<trkpt lat="48.9497703" lon="3.1310979"><ele></ele><time>2022-6-1T15:32:3Z</time></trkpt>
<trkpt lat="48.9499232" lon="3.1312452"><ele></ele><time>2022-6-1T15:32:6Z</time></trkpt>
<trkpt lat="48.9500001" lon="3.1315035"><ele></ele><time>2022-6-1T15:32:9Z</time></trkpt>
<trkpt lat="48.9500567" lon="3.1317975"><ele></ele><time>2022-6-1T15:32:12Z</time></trkpt>
<trkpt lat="48.9501732" lon="3.1320411"><ele></ele><time>2022-6-1T15:32:15Z</time></trkpt>
<trkpt lat="48.9503354" lon="3.1321998"><ele></ele><time>2022-6-1T15:32:18Z</time></trkpt>
<trkpt lat="48.9504923" lon="3.1323435"><ele></ele><time>2022-6-1T15:32:21Z</time></trkpt>
<trkpt lat="48.9506536" lon="3.1325236"><ele></ele><time>2022-6-1T15:32:24Z</time></trkpt>
<trkpt lat="48.9508158" lon="3.1326911"><ele></ele><time>2022-6-1T15:32:27Z</time></trkpt>
<trkpt lat="48.9509419" lon="3.1328988"><ele></ele><time>2022-6-1T15:32:30Z</time></trkpt>
<trkpt lat="48.9510848" lon="3.1330931"><ele></ele><time>2022-6-1T15:32:33Z</time></trkpt>
<trkpt lat="48.9512358" lon="3.1333022"><ele></ele><time>2022-6-1T15:32:36Z</time></trkpt>
<trkpt lat="48.9513776" lon="3.1334783"><ele></ele><time>2022-6-1T15:32:39Z</time></trkpt>
<trkpt lat="48.9515156" lon="3.1336640"><ele></ele><time>2022-6-1T15:32:42Z</time></trkpt>
<trkpt lat="48.9516550" lon="3.1338403"><ele></ele><time>2022-6-1T15:32:45Z</time></trkpt>
<trkpt lat="48.9518152" lon="3.1340109"><ele></ele><time>2022-6-1T15:32:48Z</time></trkpt>
<trkpt lat="48.9519851" lon="3.1341807"><ele></ele><time>2022-6-1T15:32:51Z</time></trkpt>
<trkpt lat="48.9521496" lon="3.1343235"><ele></ele><time>2022-6-1T15:32:54Z</time></trkpt>
<trkpt lat="48.9523521" lon="3.1344613"><ele></ele><time>2022-6-1T15:32:57Z</time></trkpt>
<trkpt lat="48.9525417" lon="3.1345799"><ele></ele><time>2022-6-1T15:33:0Z</time></trkpt>
<trkpt lat="48.9527007" lon="3.1347501"><ele></ele><time>2022-6-1T15:33:3Z</time></trkpt>
<trkpt lat="48.9528511" lon="3.1349797"><ele></ele><time>2022-6-1T15:33:6Z</time></trkpt>
<trkpt lat="48.9529898" lon="3.1352412"><ele></ele><time>2022-6-1T15:33:9Z</time></trkpt>
<trkpt lat="48.9531198" lon="3.1354452"><ele></ele><time>2022-6-1T15:33:12Z</time></trkpt>
<trkpt lat="48.9532359" lon="3.1356650"><ele></ele><time>2022-6-1T15:33:15Z</time></trkpt>
<trkpt lat="48.9533254" lon="3.1359283"><ele></ele><time>2022-6-1T15:33:18Z</time></trkpt>
<trkpt lat="48.9533409" lon="3.1362037"><ele></ele><time>2022-6-1T15:33:21Z</time></trkpt>
<trkpt lat="48.9533657" lon="3.1364902"><ele></ele><time>2022-6-1T15:33:24Z</time></trkpt>
<trkpt lat="48.9533740" lon="3.1361805"><ele></ele><time>2022-6-1T15:33:27Z</time></trkpt>
<trkpt lat="48.9533634" lon="3.1359051"><ele></ele><time>2022-6-1T15:33:30Z</time></trkpt>
<trkpt lat="48.9532618" lon="3.1356554"><ele></ele><time>2022-6-1T15:33:33Z</time></trkpt>
<trkpt lat="48.9533262" lon="3.1353631"><ele></ele><time>2022-6-1T15:33:36Z</time></trkpt>
<trkpt lat="48.9535080" lon="3.1353403"><ele></ele><time>2022-6-1T15:33:39Z</time></trkpt>
<trkpt lat="48.9536842" lon="3.1355263"><ele></ele><time>2022-6-1T15:33:42Z</time></trkpt>
<trkpt lat="48.9538454" lon="3.1356590"><ele></ele><time>2022-6-1T15:33:45Z</time></trkpt>
<trkpt lat="48.9540339" lon="3.1358254"><ele></ele><time>2022-6-1T15:33:48Z</time></trkpt>
<trkpt lat="48.9542204" lon="3.1359984"><ele></ele><time>2022-6-1T15:33:51Z</time></trkpt>
<trkpt lat="48.9544042" lon="3.1361643"><ele></ele><time>2022-6-1T15:33:54Z</time></trkpt>
<trkpt lat="48.9545774" lon="3.1362899"><ele></ele><time>2022-6-1T15:33:57Z</time></trkpt>
<trkpt lat="48.9547345" lon="3.1364313"><ele></ele><time>2022-6-1T15:34:0Z</time></trkpt>
<trkpt lat="48.9549160" lon="3.1365907"><ele></ele><time>2022-6-1T15:34:3Z</time></trkpt>
<trkpt lat="48.9550707" lon="3.1367320"><ele></ele><time>2022-6-1T15:34:6Z</time></trkpt>
<trkpt lat="48.9552477" lon="3.1368451"><ele></ele><time>2022-6-1T15:34:9Z</time></trkpt>
<trkpt lat="48.9554241" lon="3.1369494"><ele></ele><time>2022-6-1T15:34:12Z</time></trkpt>
<trkpt lat="48.9556035" lon="3.1370492"><ele></ele><time>2022-6-1T15:34:15Z</time></trkpt>
<trkpt lat="48.9557891" lon="3.1371447"><ele></ele><time>2022-6-1T15:34:18Z</time></trkpt>
<trkpt lat="48.9559848" lon="3.1372463"><ele></ele><time>2022-6-1T15:34:21Z</time></trkpt>
<trkpt lat="48.9561748" lon="3.1373700"><ele></ele><time>2022-6-1T15:34:24Z</time></trkpt>
<trkpt lat="48.9563761" lon="3.1375135"><ele></ele><time>2022-6-1T15:34:27Z</time></trkpt>
<trkpt lat="48.9565400" lon="3.1376500"><ele></ele><time>2022-6-1T15:34:30Z</time></trkpt>
<trkpt lat="48.9567101" lon="3.1377976"><ele></ele><time>2022-6-1T15:34:33Z</time></trkpt>
<trkpt lat="48.9568825" lon="3.1379483"><ele></ele><time>2022-6-1T15:34:36Z</time></trkpt>
<trkpt lat="48.9570586" lon="3.1381015"><ele></ele><time>2022-6-1T15:34:39Z</time></trkpt>
<trkpt lat="48.9572360" lon="3.1382694"><ele></ele><time>2022-6-1T15:34:42Z</time></trkpt>
<trkpt lat="48.9574050" lon="3.1384183"><ele></ele><time>2022-6-1T15:34:45Z</time></trkpt>
<trkpt lat="48.9575792" lon="3.1385591"><ele></ele><time>2022-6-1T15:34:48Z</time></trkpt>
<trkpt lat="48.9577487" lon="3.1387225"><ele></ele><time>2022-6-1T15:34:51Z</time></trkpt>
<trkpt lat="48.9579173" lon="3.1388796"><ele></ele><time>2022-6-1T15:34:54Z</time></trkpt>
<trkpt lat="48.9580881" lon="3.1390351"><ele></ele><time>2022-6-1T15:34:57Z</time></trkpt>
<trkpt lat="48.9582586" lon="3.1391851"><ele></ele><time>2022-6-1T15:35:0Z</time></trkpt>
<trkpt lat="48.9584251" lon="3.1393334"><ele></ele><time>2022-6-1T15:35:3Z</time></trkpt>
<trkpt lat="48.9585916" lon="3.1394820"><ele></ele><time>2022-6-1T15:35:6Z</time></trkpt>
<trkpt lat="48.9587638" lon="3.1396446"><ele></ele><time>2022-6-1T15:35:9Z</time></trkpt>
<trkpt lat="48.9589418" lon="3.1398133"><ele></ele><time>2022-6-1T15:35:12Z</time></trkpt>
<trkpt lat="48.9591111" lon="3.1399666"><ele></ele><time>2022-6-1T15:35:15Z</time></trkpt>
<trkpt lat="48.9592920" lon="3.1401058"><ele></ele><time>2022-6-1T15:35:18Z</time></trkpt>
<trkpt lat="48.9594770" lon="3.1402424"><ele></ele><time>2022-6-1T15:35:21Z</time></trkpt>
<trkpt lat="48.9596481" lon="3.1403585"><ele></ele><time>2022-6-1T15:35:24Z</time></trkpt>
<trkpt lat="48.9598040" lon="3.1404970"><ele></ele><time>2022-6-1T15:35:27Z</time></trkpt>
<trkpt lat="48.9600233" lon="3.1407128"><ele></ele><time>2022-6-1T15:35:30Z</time></trkpt>
<trkpt lat="48.9602045" lon="3.1408613"><ele></ele><time>2022-6-1T15:35:33Z</time></trkpt>
<trkpt lat="48.9604142" lon="3.1410087"><ele></ele><time>2022-6-1T15:35:36Z</time></trkpt>
<trkpt lat="48.9605613" lon="3.1412554"><ele></ele><time>2022-6-1T15:35:39Z</time></trkpt>
<trkpt lat="48.9607376" lon="3.1414599"><ele></ele><time>2022-6-1T15:35:42Z</time></trkpt>
<trkpt lat="48.9608833" lon="3.1416491"><ele></ele><time>2022-6-1T15:35:45Z</time></trkpt>
<trkpt lat="48.9610261" lon="3.1418550"><ele></ele><time>2022-6-1T15:35:48Z</time></trkpt>
<trkpt lat="48.9611635" lon="3.1420811"><ele></ele><time>2022-6-1T15:35:51Z</time></trkpt>
<trkpt lat="48.9613179" lon="3.1423104"><ele></ele><time>2022-6-1T15:35:54Z</time></trkpt>
<trkpt lat="48.9614656" lon="3.1426480"><ele></ele><time>2022-6-1T15:35:57Z</time></trkpt>
<trkpt lat="48.9615594" lon="3.1429010"><ele></ele><time>2022-6-1T15:36:0Z</time></trkpt>
<trkpt lat="48.9616670" lon="3.1431367"><ele></ele><time>2022-6-1T15:36:3Z</time></trkpt>
<trkpt lat="48.9617383" lon="3.1434372"><ele></ele><time>2022-6-1T15:36:6Z</time></trkpt>
<trkpt lat="48.9618198" lon="3.1437412"><ele></ele><time>2022-6-1T15:36:9Z</time></trkpt>
<trkpt lat="48.9618740" lon="3.1440074"><ele></ele><time>2022-6-1T15:36:12Z</time></trkpt>
<trkpt lat="48.9619867" lon="3.1443317"><ele></ele><time>2022-6-1T15:36:15Z</time></trkpt>
<trkpt lat="48.9621066" lon="3.1446013"><ele></ele><time>2022-6-1T15:36:18Z</time></trkpt>
<trkpt lat="48.9622252" lon="3.1448395"><ele></ele><time>2022-6-1T15:36:21Z</time></trkpt>
<trkpt lat="48.9623400" lon="3.1450861"><ele></ele><time>2022-6-1T15:36:24Z</time></trkpt>
<trkpt lat="48.9624739" lon="3.1453264"><ele></ele><time>2022-6-1T15:36:27Z</time></trkpt>
<trkpt lat="48.9625935" lon="3.1455328"><ele></ele><time>2022-6-1T15:36:30Z</time></trkpt>
<trkpt lat="48.9627373" lon="3.1457317"><ele></ele><time>2022-6-1T15:36:33Z</time></trkpt>
<trkpt lat="48.9628894" lon="3.1459541"><ele></ele><time>2022-6-1T15:36:36Z</time></trkpt>
<trkpt lat="48.9630373" lon="3.1462015"><ele></ele><time>2022-6-1T15:36:39Z</time></trkpt>
<trkpt lat="48.9631527" lon="3.1465024"><ele></ele><time>2022-6-1T15:36:42Z</time></trkpt>
<trkpt lat="48.9632682" lon="3.1467500"><ele></ele><time>2022-6-1T15:36:45Z</time></trkpt>
<trkpt lat="48.9633347" lon="3.1470075"><ele></ele><time>2022-6-1T15:36:48Z</time></trkpt>
<trkpt lat="48.9634188" lon="3.1472709"><ele></ele><time>2022-6-1T15:36:51Z</time></trkpt>
<trkpt lat="48.9635288" lon="3.1475538"><ele></ele><time>2022-6-1T15:36:54Z</time></trkpt>
<trkpt lat="48.9636090" lon="3.1478483"><ele></ele><time>2022-6-1T15:36:57Z</time></trkpt>
<trkpt lat="48.9637254" lon="3.1481461"><ele></ele><time>2022-6-1T15:37:0Z</time></trkpt>
<trkpt lat="48.9638133" lon="3.1484138"><ele></ele><time>2022-6-1T15:37:3Z</time></trkpt>
<trkpt lat="48.9639012" lon="3.1486673"><ele></ele><time>2022-6-1T15:37:6Z</time></trkpt>
<trkpt lat="48.9640209" lon="3.1489213"><ele></ele><time>2022-6-1T15:37:9Z</time></trkpt>
<trkpt lat="48.9641665" lon="3.1491458"><ele></ele><time>2022-6-1T15:37:12Z</time></trkpt>
<trkpt lat="48.9643174" lon="3.1493642"><ele></ele><time>2022-6-1T15:37:15Z</time></trkpt>
<trkpt lat="48.9644675" lon="3.1495985"><ele></ele><time>2022-6-1T15:37:18Z</time></trkpt>
<trkpt lat="48.9645956" lon="3.1497995"><ele></ele><time>2022-6-1T15:37:21Z</time></trkpt>
<trkpt lat="48.9647531" lon="3.1500526"><ele></ele><time>2022-6-1T15:37:24Z</time></trkpt>
<trkpt lat="48.9648884" lon="3.1502624"><ele></ele><time>2022-6-1T15:37:27Z</time></trkpt>
<trkpt lat="48.9650224" lon="3.1504634"><ele></ele><time>2022-6-1T15:37:30Z</time></trkpt>
<trkpt lat="48.9651681" lon="3.1506852"><ele></ele><time>2022-6-1T15:37:33Z</time></trkpt>
<trkpt lat="48.9653129" lon="3.1509023"><ele></ele><time>2022-6-1T15:37:36Z</time></trkpt>
<trkpt lat="48.9654549" lon="3.1511089"><ele></ele><time>2022-6-1T15:37:39Z</time></trkpt>
<trkpt lat="48.9655964" lon="3.1513156"><ele></ele><time>2022-6-1T15:37:42Z</time></trkpt>
<trkpt lat="48.9657438" lon="3.1515380"><ele></ele><time>2022-6-1T15:37:45Z</time></trkpt>
<trkpt lat="48.9658862" lon="3.1517503"><ele></ele><time>2022-6-1T15:37:48Z</time></trkpt>
<trkpt lat="48.9660328" lon="3.1519706"><ele></ele><time>2022-6-1T15:37:51Z</time></trkpt>
<trkpt lat="48.9661633" lon="3.1521885"><ele></ele><time>2022-6-1T15:37:54Z</time></trkpt>
<trkpt lat="48.9663084" lon="3.1524070"><ele></ele><time>2022-6-1T15:37:57Z</time></trkpt>
<trkpt lat="48.9664343" lon="3.1526038"><ele></ele><time>2022-6-1T15:38:0Z</time></trkpt>
<trkpt lat="48.9665971" lon="3.1528419"><ele></ele><time>2022-6-1T15:38:3Z</time></trkpt>
<trkpt lat="48.9667300" lon="3.1530481"><ele></ele><time>2022-6-1T15:38:6Z</time></trkpt>
<trkpt lat="48.9668793" lon="3.1532649"><ele></ele><time>2022-6-1T15:38:9Z</time></trkpt>
<trkpt lat="48.9670319" lon="3.1534964"><ele></ele><time>2022-6-1T15:38:12Z</time></trkpt>
<trkpt lat="48.9671614" lon="3.1537040"><ele></ele><time>2022-6-1T15:38:15Z</time></trkpt>
<trkpt lat="48.9673259" lon="3.1539368"><ele></ele><time>2022-6-1T15:38:18Z</time></trkpt>
<trkpt lat="48.9674687" lon="3.1541446"><ele></ele><time>2022-6-1T15:38:21Z</time></trkpt>
<trkpt lat="48.9676139" lon="3.1543687"><ele></ele><time>2022-6-1T15:38:24Z</time></trkpt>
<trkpt lat="48.9677583" lon="3.1545782"><ele></ele><time>2022-6-1T15:38:27Z</time></trkpt>
<trkpt lat="48.9679068" lon="3.1548059"><ele></ele><time>2022-6-1T15:38:30Z</time></trkpt>
<trkpt lat="48.9680470" lon="3.1550276"><ele></ele><time>2022-6-1T15:38:33Z</time></trkpt>
<trkpt lat="48.9681823" lon="3.1552528"><ele></ele><time>2022-6-1T15:38:36Z</time></trkpt>
<trkpt lat="48.9683258" lon="3.1554741"><ele></ele><time>2022-6-1T15:38:39Z</time></trkpt>
<trkpt lat="48.9684787" lon="3.1556979"><ele></ele><time>2022-6-1T15:38:42Z</time></trkpt>
<trkpt lat="48.9686236" lon="3.1559231"><ele></ele><time>2022-6-1T15:38:45Z</time></trkpt>
<trkpt lat="48.9687694" lon="3.1561447"><ele></ele><time>2022-6-1T15:38:48Z</time></trkpt>
<trkpt lat="48.9689141" lon="3.1563802"><ele></ele><time>2022-6-1T15:38:51Z</time></trkpt>
<trkpt lat="48.9690594" lon="3.1565985"><ele></ele><time>2022-6-1T15:38:54Z</time></trkpt>
<trkpt lat="48.9691974" lon="3.1568106"><ele></ele><time>2022-6-1T15:38:57Z</time></trkpt>
<trkpt lat="48.9693331" lon="3.1570023"><ele></ele><time>2022-6-1T15:39:0Z</time></trkpt>
<trkpt lat="48.9694973" lon="3.1572080"><ele></ele><time>2022-6-1T15:39:3Z</time></trkpt>
<trkpt lat="48.9696365" lon="3.1573863"><ele></ele><time>2022-6-1T15:39:6Z</time></trkpt>
<trkpt lat="48.9698184" lon="3.1575579"><ele></ele><time>2022-6-1T15:39:9Z</time></trkpt>
<trkpt lat="48.9699892" lon="3.1576791"><ele></ele><time>2022-6-1T15:39:12Z</time></trkpt>
<trkpt lat="48.9701691" lon="3.1578309"><ele></ele><time>2022-6-1T15:39:15Z</time></trkpt>
<trkpt lat="48.9703293" lon="3.1579718"><ele></ele><time>2022-6-1T15:39:18Z</time></trkpt>
<trkpt lat="48.9704906" lon="3.1581049"><ele></ele><time>2022-6-1T15:39:21Z</time></trkpt>
<trkpt lat="48.9706971" lon="3.1582808"><ele></ele><time>2022-6-1T15:39:24Z</time></trkpt>
<trkpt lat="48.9708891" lon="3.1584624"><ele></ele><time>2022-6-1T15:39:27Z</time></trkpt>
<trkpt lat="48.9710736" lon="3.1586342"><ele></ele><time>2022-6-1T15:39:30Z</time></trkpt>
<trkpt lat="48.9712373" lon="3.1587734"><ele></ele><time>2022-6-1T15:39:33Z</time></trkpt>
<trkpt lat="48.9714305" lon="3.1589350"><ele></ele><time>2022-6-1T15:39:36Z</time></trkpt>
<trkpt lat="48.9716144" lon="3.1590994"><ele></ele><time>2022-6-1T15:39:39Z</time></trkpt>
<trkpt lat="48.9717745" lon="3.1592342"><ele></ele><time>2022-6-1T15:39:42Z</time></trkpt>
<trkpt lat="48.9719672" lon="3.1593869"><ele></ele><time>2022-6-1T15:39:45Z</time></trkpt>
<trkpt lat="48.9721551" lon="3.1595754"><ele></ele><time>2022-6-1T15:39:48Z</time></trkpt>
<trkpt lat="48.9723222" lon="3.1597244"><ele></ele><time>2022-6-1T15:39:51Z</time></trkpt>
<trkpt lat="48.9724805" lon="3.1598673"><ele></ele><time>2022-6-1T15:39:54Z</time></trkpt>
<trkpt lat="48.9726392" lon="3.1600063"><ele></ele><time>2022-6-1T15:39:57Z</time></trkpt>
<trkpt lat="48.9728094" lon="3.1601469"><ele></ele><time>2022-6-1T15:40:0Z</time></trkpt>
<trkpt lat="48.9729778" lon="3.1603034"><ele></ele><time>2022-6-1T15:40:3Z</time></trkpt>
<trkpt lat="48.9731414" lon="3.1604538"><ele></ele><time>2022-6-1T15:40:6Z</time></trkpt>
<trkpt lat="48.9733109" lon="3.1605994"><ele></ele><time>2022-6-1T15:40:9Z</time></trkpt>
<trkpt lat="48.9734905" lon="3.1607318"><ele></ele><time>2022-6-1T15:40:12Z</time></trkpt>
<trkpt lat="48.9736582" lon="3.1608922"><ele></ele><time>2022-6-1T15:40:15Z</time></trkpt>
<trkpt lat="48.9738248" lon="3.1610419"><ele></ele><time>2022-6-1T15:40:18Z</time></trkpt>
<trkpt lat="48.9740174" lon="3.1612098"><ele></ele><time>2022-6-1T15:40:21Z</time></trkpt>
<trkpt lat="48.9741904" lon="3.1613481"><ele></ele><time>2022-6-1T15:40:24Z</time></trkpt>
<trkpt lat="48.9742458" lon="3.1616494"><ele></ele><time>2022-6-1T15:40:27Z</time></trkpt>
<trkpt lat="48.9741827" lon="3.1619215"><ele></ele><time>2022-6-1T15:40:30Z</time></trkpt>
<trkpt lat="48.9740799" lon="3.1622044"><ele></ele><time>2022-6-1T15:40:33Z</time></trkpt>
<trkpt lat="48.9740112" lon="3.1624858"><ele></ele><time>2022-6-1T15:40:36Z</time></trkpt>
<trkpt lat="48.9739993" lon="3.1627851"><ele></ele><time>2022-6-1T15:40:39Z</time></trkpt>
<trkpt lat="48.9741534" lon="3.1629959"><ele></ele><time>2022-6-1T15:40:42Z</time></trkpt>
<trkpt lat="48.9743371" lon="3.1631672"><ele></ele><time>2022-6-1T15:40:45Z</time></trkpt>
<trkpt lat="48.9745190" lon="3.1632598"><ele></ele><time>2022-6-1T15:40:48Z</time></trkpt>
<trkpt lat="48.9747055" lon="3.1633152"><ele></ele><time>2022-6-1T15:40:51Z</time></trkpt>
<trkpt lat="48.9748868" lon="3.1633756"><ele></ele><time>2022-6-1T15:40:54Z</time></trkpt>
<trkpt lat="48.9750637" lon="3.1634640"><ele></ele><time>2022-6-1T15:40:57Z</time></trkpt>
<trkpt lat="48.9752502" lon="3.1635690"><ele></ele><time>2022-6-1T15:41:0Z</time></trkpt>
<trkpt lat="48.9754372" lon="3.1636753"><ele></ele><time>2022-6-1T15:41:3Z</time></trkpt>
<trkpt lat="48.9756221" lon="3.1637897"><ele></ele><time>2022-6-1T15:41:6Z</time></trkpt>
<trkpt lat="48.9757998" lon="3.1638945"><ele></ele><time>2022-6-1T15:41:9Z</time></trkpt>
<trkpt lat="48.9759778" lon="3.1640017"><ele></ele><time>2022-6-1T15:41:12Z</time></trkpt>
<trkpt lat="48.9761537" lon="3.1640961"><ele></ele><time>2022-6-1T15:41:15Z</time></trkpt>
<trkpt lat="48.9763542" lon="3.1642299"><ele></ele><time>2022-6-1T15:41:18Z</time></trkpt>
<trkpt lat="48.9765490" lon="3.1643973"><ele></ele><time>2022-6-1T15:41:21Z</time></trkpt>
<trkpt lat="48.9767207" lon="3.1645447"><ele></ele><time>2022-6-1T15:41:24Z</time></trkpt>
<trkpt lat="48.9769076" lon="3.1647117"><ele></ele><time>2022-6-1T15:41:27Z</time></trkpt>
<trkpt lat="48.9770995" lon="3.1648352"><ele></ele><time>2022-6-1T15:41:30Z</time></trkpt>
<trkpt lat="48.9773048" lon="3.1649265"><ele></ele><time>2022-6-1T15:41:33Z</time></trkpt>
<trkpt lat="48.9775192" lon="3.1648858"><ele></ele><time>2022-6-1T15:41:36Z</time></trkpt>
<trkpt lat="48.9776713" lon="3.1647243"><ele></ele><time>2022-6-1T15:41:39Z</time></trkpt>
<trkpt lat="48.9778345" lon="3.1645874"><ele></ele><time>2022-6-1T15:41:42Z</time></trkpt>
<trkpt lat="48.9780328" lon="3.1645566"><ele></ele><time>2022-6-1T15:41:45Z</time></trkpt>
<trkpt lat="48.9782327" lon="3.1646157"><ele></ele><time>2022-6-1T15:41:48Z</time></trkpt>
<trkpt lat="48.9784058" lon="3.1647449"><ele></ele><time>2022-6-1T15:41:51Z</time></trkpt>
<trkpt lat="48.9785793" lon="3.1649173"><ele></ele><time>2022-6-1T15:41:54Z</time></trkpt>
<trkpt lat="48.9787677" lon="3.1650683"><ele></ele><time>2022-6-1T15:41:57Z</time></trkpt>
<trkpt lat="48.9789498" lon="3.1651815"><ele></ele><time>2022-6-1T15:42:0Z</time></trkpt>
<trkpt lat="48.9791458" lon="3.1652015"><ele></ele><time>2022-6-1T15:42:3Z</time></trkpt>
<trkpt lat="48.9793393" lon="3.1651348"><ele></ele><time>2022-6-1T15:42:6Z</time></trkpt>
<trkpt lat="48.9795476" lon="3.1651745"><ele></ele><time>2022-6-1T15:42:9Z</time></trkpt>
<trkpt lat="48.9797508" lon="3.1652591"><ele></ele><time>2022-6-1T15:42:12Z</time></trkpt>
<trkpt lat="48.9799272" lon="3.1653620"><ele></ele><time>2022-6-1T15:42:15Z</time></trkpt>
<trkpt lat="48.9801107" lon="3.1653725"><ele></ele><time>2022-6-1T15:42:18Z</time></trkpt>
<trkpt lat="48.9802700" lon="3.1651986"><ele></ele><time>2022-6-1T15:42:21Z</time></trkpt>
<trkpt lat="48.9804089" lon="3.1649825"><ele></ele><time>2022-6-1T15:42:24Z</time></trkpt>
<trkpt lat="48.9805909" lon="3.1648537"><ele></ele><time>2022-6-1T15:42:27Z</time></trkpt>
<trkpt lat="48.9807862" lon="3.1648951"><ele></ele><time>2022-6-1T15:42:30Z</time></trkpt>
<trkpt lat="48.9809747" lon="3.1649456"><ele></ele><time>2022-6-1T15:42:33Z</time></trkpt>
<trkpt lat="48.9811653" lon="3.1650124"><ele></ele><time>2022-6-1T15:42:36Z</time></trkpt>
<trkpt lat="48.9813494" lon="3.1650636"><ele></ele><time>2022-6-1T15:42:39Z</time></trkpt>
<trkpt lat="48.9815581" lon="3.1651330"><ele></ele><time>2022-6-1T15:42:42Z</time></trkpt>
<trkpt lat="48.9817605" lon="3.1651512"><ele></ele><time>2022-6-1T15:42:45Z</time></trkpt>
<trkpt lat="48.9819430" lon="3.1651687"><ele></ele><time>2022-6-1T15:42:48Z</time></trkpt>
<trkpt lat="48.9821609" lon="3.1651597"><ele></ele><time>2022-6-1T15:42:51Z</time></trkpt>
<trkpt lat="48.9823496" lon="3.1651808"><ele></ele><time>2022-6-1T15:42:54Z</time></trkpt>
<trkpt lat="48.9825348" lon="3.1651976"><ele></ele><time>2022-6-1T15:42:57Z</time></trkpt>
<trkpt lat="48.9827566" lon="3.1652041"><ele></ele><time>2022-6-1T15:43:0Z</time></trkpt>
<trkpt lat="48.9829398" lon="3.1652161"><ele></ele><time>2022-6-1T15:43:3Z</time></trkpt>
<trkpt lat="48.9831227" lon="3.1652372"><ele></ele><time>2022-6-1T15:43:6Z</time></trkpt>
<trkpt lat="48.9833352" lon="3.1652392"><ele></ele><time>2022-6-1T15:43:9Z</time></trkpt>
<trkpt lat="48.9835368" lon="3.1652755"><ele></ele><time>2022-6-1T15:43:12Z</time></trkpt>
<trkpt lat="48.9837532" lon="3.1652898"><ele></ele><time>2022-6-1T15:43:15Z</time></trkpt>
<trkpt lat="48.9839451" lon="3.1653529"><ele></ele><time>2022-6-1T15:43:18Z</time></trkpt>
<trkpt lat="48.9841750" lon="3.1653949"><ele></ele><time>2022-6-1T15:43:21Z</time></trkpt>
<trkpt lat="48.9843628" lon="3.1654111"><ele></ele><time>2022-6-1T15:43:24Z</time></trkpt>
<trkpt lat="48.9845575" lon="3.1654612"><ele></ele><time>2022-6-1T15:43:27Z</time></trkpt>
<trkpt lat="48.9847487" lon="3.1654884"><ele></ele><time>2022-6-1T15:43:30Z</time></trkpt>
<trkpt lat="48.9849332" lon="3.1655559"><ele></ele><time>2022-6-1T15:43:33Z</time></trkpt>
<trkpt lat="48.9851347" lon="3.1656411"><ele></ele><time>2022-6-1T15:43:36Z</time></trkpt>
<trkpt lat="48.9853349" lon="3.1657300"><ele></ele><time>2022-6-1T15:43:39Z</time></trkpt>
<trkpt lat="48.9855735" lon="3.1658546"><ele></ele><time>2022-6-1T15:43:42Z</time></trkpt>
<trkpt lat="48.9857480" lon="3.1659384"><ele></ele><time>2022-6-1T15:43:45Z</time></trkpt>
<trkpt lat="48.9859521" lon="3.1660584"><ele></ele><time>2022-6-1T15:43:48Z</time></trkpt>
<trkpt lat="48.9861400" lon="3.1661716"><ele></ele><time>2022-6-1T15:43:51Z</time></trkpt>
<trkpt lat="48.9863275" lon="3.1663826"><ele></ele><time>2022-6-1T15:43:54Z</time></trkpt>
<trkpt lat="48.9864848" lon="3.1665806"><ele></ele><time>2022-6-1T15:43:57Z</time></trkpt>
<trkpt lat="48.9866438" lon="3.1667340"><ele></ele><time>2022-6-1T15:44:0Z</time></trkpt>
<trkpt lat="48.9868094" lon="3.1669121"><ele></ele><time>2022-6-1T15:44:3Z</time></trkpt>
<trkpt lat="48.9869708" lon="3.1671112"><ele></ele><time>2022-6-1T15:44:6Z</time></trkpt>
<trkpt lat="48.9871385" lon="3.1673182"><ele></ele><time>2022-6-1T15:44:9Z</time></trkpt>
<trkpt lat="48.9873130" lon="3.1675362"><ele></ele><time>2022-6-1T15:44:12Z</time></trkpt>
<trkpt lat="48.9874753" lon="3.1677321"><ele></ele><time>2022-6-1T15:44:15Z</time></trkpt>
<trkpt lat="48.9876118" lon="3.1679236"><ele></ele><time>2022-6-1T15:44:18Z</time></trkpt>
<trkpt lat="48.9877576" lon="3.1681078"><ele></ele><time>2022-6-1T15:44:21Z</time></trkpt>
<trkpt lat="48.9879067" lon="3.1682981"><ele></ele><time>2022-6-1T15:44:24Z</time></trkpt>
<trkpt lat="48.9880689" lon="3.1685010"><ele></ele><time>2022-6-1T15:44:27Z</time></trkpt>
<trkpt lat="48.9882092" lon="3.1686933"><ele></ele><time>2022-6-1T15:44:30Z</time></trkpt>
<trkpt lat="48.9883526" lon="3.1688801"><ele></ele><time>2022-6-1T15:44:33Z</time></trkpt>
<trkpt lat="48.9884922" lon="3.1690907"><ele></ele><time>2022-6-1T15:44:36Z</time></trkpt>
<trkpt lat="48.9886594" lon="3.1693134"><ele></ele><time>2022-6-1T15:44:39Z</time></trkpt>
<trkpt lat="48.9887942" lon="3.1695004"><ele></ele><time>2022-6-1T15:44:42Z</time></trkpt>
<trkpt lat="48.9889520" lon="3.1696836"><ele></ele><time>2022-6-1T15:44:45Z</time></trkpt>
<trkpt lat="48.9890930" lon="3.1699247"><ele></ele><time>2022-6-1T15:44:48Z</time></trkpt>
<trkpt lat="48.9892088" lon="3.1701515"><ele></ele><time>2022-6-1T15:44:51Z</time></trkpt>
<trkpt lat="48.9893174" lon="3.1703803"><ele></ele><time>2022-6-1T15:44:54Z</time></trkpt>
<trkpt lat="48.9894215" lon="3.1706587"><ele></ele><time>2022-6-1T15:44:57Z</time></trkpt>
<trkpt lat="48.9895098" lon="3.1709255"><ele></ele><time>2022-6-1T15:45:0Z</time></trkpt>
<trkpt lat="48.9896501" lon="3.1711591"><ele></ele><time>2022-6-1T15:45:3Z</time></trkpt>
<trkpt lat="48.9897598" lon="3.1714090"><ele></ele><time>2022-6-1T15:45:6Z</time></trkpt>
<trkpt lat="48.9898615" lon="3.1716509"><ele></ele><time>2022-6-1T15:45:9Z</time></trkpt>
<trkpt lat="48.9899715" lon="3.1719013"><ele></ele><time>2022-6-1T15:45:12Z</time></trkpt>
<trkpt lat="48.9901202" lon="3.1721033"><ele></ele><time>2022-6-1T15:45:15Z</time></trkpt>
<trkpt lat="48.9902166" lon="3.1723611"><ele></ele><time>2022-6-1T15:45:18Z</time></trkpt>
<trkpt lat="48.9903296" lon="3.1726409"><ele></ele><time>2022-6-1T15:45:21Z</time></trkpt>
<trkpt lat="48.9904416" lon="3.1729092"><ele></ele><time>2022-6-1T15:45:24Z</time></trkpt>
<trkpt lat="48.9905528" lon="3.1732037"><ele></ele><time>2022-6-1T15:45:27Z</time></trkpt>
<trkpt lat="48.9906837" lon="3.1734677"><ele></ele><time>2022-6-1T15:45:30Z</time></trkpt>
<trkpt lat="48.9908470" lon="3.1736247"><ele></ele><time>2022-6-1T15:45:33Z</time></trkpt>
<trkpt lat="48.9909987" lon="3.1738181"><ele></ele><time>2022-6-1T15:45:36Z</time></trkpt>
<trkpt lat="48.9911621" lon="3.1740014"><ele></ele><time>2022-6-1T15:45:39Z</time></trkpt>
<trkpt lat="48.9913348" lon="3.1741790"><ele></ele><time>2022-6-1T15:45:42Z</time></trkpt>
<trkpt lat="48.9915074" lon="3.1743525"><ele></ele><time>2022-6-1T15:45:45Z</time></trkpt>
<trkpt lat="48.9916515" lon="3.1745306"><ele></ele><time>2022-6-1T15:45:48Z</time></trkpt>
<trkpt lat="48.9918180" lon="3.1747276"><ele></ele><time>2022-6-1T15:45:51Z</time></trkpt>
<trkpt lat="48.9919815" lon="3.1749089"><ele></ele><time>2022-6-1T15:45:54Z</time></trkpt>
<trkpt lat="48.9921275" lon="3.1750960"><ele></ele><time>2022-6-1T15:45:57Z</time></trkpt>
<trkpt lat="48.9922584" lon="3.1753038"><ele></ele><time>2022-6-1T15:46:0Z</time></trkpt>
<trkpt lat="48.9923836" lon="3.1755851"><ele></ele><time>2022-6-1T15:46:3Z</time></trkpt>
<trkpt lat="48.9925068" lon="3.1758207"><ele></ele><time>2022-6-1T15:46:6Z</time></trkpt>
<trkpt lat="48.9926349" lon="3.1761127"><ele></ele><time>2022-6-1T15:46:9Z</time></trkpt>
<trkpt lat="48.9927402" lon="3.1763748"><ele></ele><time>2022-6-1T15:46:12Z</time></trkpt>
<trkpt lat="48.9928560" lon="3.1766619"><ele></ele><time>2022-6-1T15:46:15Z</time></trkpt>
<trkpt lat="48.9929700" lon="3.1769258"><ele></ele><time>2022-6-1T15:46:18Z</time></trkpt>
<trkpt lat="48.9931213" lon="3.1771440"><ele></ele><time>2022-6-1T15:46:21Z</time></trkpt>
<trkpt lat="48.9932702" lon="3.1773776"><ele></ele><time>2022-6-1T15:46:24Z</time></trkpt>
<trkpt lat="48.9933980" lon="3.1776227"><ele></ele><time>2022-6-1T15:46:27Z</time></trkpt>
<trkpt lat="48.9935307" lon="3.1778662"><ele></ele><time>2022-6-1T15:46:30Z</time></trkpt>
<trkpt lat="48.9936485" lon="3.1781183"><ele></ele><time>2022-6-1T15:46:33Z</time></trkpt>
<trkpt lat="48.9937596" lon="3.1783378"><ele></ele><time>2022-6-1T15:46:36Z</time></trkpt>
<trkpt lat="48.9938880" lon="3.1786191"><ele></ele><time>2022-6-1T15:46:39Z</time></trkpt>
<trkpt lat="48.9940070" lon="3.1788602"><ele></ele><time>2022-6-1T15:46:42Z</time></trkpt>
<trkpt lat="48.9941217" lon="3.1790813"><ele></ele><time>2022-6-1T15:46:45Z</time></trkpt>
<trkpt lat="48.9942609" lon="3.1793241"><ele></ele><time>2022-6-1T15:46:48Z</time></trkpt>
<trkpt lat="48.9943623" lon="3.1795682"><ele></ele><time>2022-6-1T15:46:51Z</time></trkpt>
<trkpt lat="48.9944690" lon="3.1798255"><ele></ele><time>2022-6-1T15:46:54Z</time></trkpt>
<trkpt lat="48.9945711" lon="3.1800732"><ele></ele><time>2022-6-1T15:46:57Z</time></trkpt>
<trkpt lat="48.9946730" lon="3.1803108"><ele></ele><time>2022-6-1T15:47:0Z</time></trkpt>
<trkpt lat="48.9948205" lon="3.1805388"><ele></ele><time>2022-6-1T15:47:3Z</time></trkpt>
<trkpt lat="48.9949407" lon="3.1807482"><ele></ele><time>2022-6-1T15:47:6Z</time></trkpt>
<trkpt lat="48.9950453" lon="3.1810336"><ele></ele><time>2022-6-1T15:47:9Z</time></trkpt>
<trkpt lat="48.9951368" lon="3.1812971"><ele></ele><time>2022-6-1T15:47:12Z</time></trkpt>
<trkpt lat="48.9952494" lon="3.1815948"><ele></ele><time>2022-6-1T15:47:15Z</time></trkpt>
<trkpt lat="48.9953179" lon="3.1819114"><ele></ele><time>2022-6-1T15:47:18Z</time></trkpt>
<trkpt lat="48.9953427" lon="3.1822122"><ele></ele><time>2022-6-1T15:47:21Z</time></trkpt>
<trkpt lat="48.9954312" lon="3.1824918"><ele></ele><time>2022-6-1T15:47:24Z</time></trkpt>
<trkpt lat="48.9954724" lon="3.1827654"><ele></ele><time>2022-6-1T15:47:27Z</time></trkpt>
<trkpt lat="48.9955326" lon="3.1830392"><ele></ele><time>2022-6-1T15:47:30Z</time></trkpt>
<trkpt lat="48.9956005" lon="3.1833785"><ele></ele><time>2022-6-1T15:47:33Z</time></trkpt>
<trkpt lat="48.9956409" lon="3.1836655"><ele></ele><time>2022-6-1T15:47:36Z</time></trkpt>
<trkpt lat="48.9956754" lon="3.1839348"><ele></ele><time>2022-6-1T15:47:39Z</time></trkpt>
<trkpt lat="48.9956680" lon="3.1842267"><ele></ele><time>2022-6-1T15:47:42Z</time></trkpt>
<trkpt lat="48.9956289" lon="3.1845069"><ele></ele><time>2022-6-1T15:47:45Z</time></trkpt>
<trkpt lat="48.9955914" lon="3.1848056"><ele></ele><time>2022-6-1T15:47:48Z</time></trkpt>
<trkpt lat="48.9955633" lon="3.1850986"><ele></ele><time>2022-6-1T15:47:51Z</time></trkpt>
<trkpt lat="48.9955814" lon="3.1854122"><ele></ele><time>2022-6-1T15:47:54Z</time></trkpt>
<trkpt lat="48.9956020" lon="3.1857113"><ele></ele><time>2022-6-1T15:47:57Z</time></trkpt>
<trkpt lat="48.9956178" lon="3.1859968"><ele></ele><time>2022-6-1T15:48:0Z</time></trkpt>
<trkpt lat="48.9956551" lon="3.1862673"><ele></ele><time>2022-6-1T15:48:3Z</time></trkpt>
<trkpt lat="48.9956928" lon="3.1865487"><ele></ele><time>2022-6-1T15:48:6Z</time></trkpt>
<trkpt lat="48.9957248" lon="3.1868877"><ele></ele><time>2022-6-1T15:48:9Z</time></trkpt>
<trkpt lat="48.9957723" lon="3.1872260"><ele></ele><time>2022-6-1T15:48:12Z</time></trkpt>
<trkpt lat="48.9957917" lon="3.1875170"><ele></ele><time>2022-6-1T15:48:15Z</time></trkpt>
<trkpt lat="48.9957952" lon="3.1877960"><ele></ele><time>2022-6-1T15:48:18Z</time></trkpt>
<trkpt lat="48.9957908" lon="3.1881597"><ele></ele><time>2022-6-1T15:48:21Z</time></trkpt>
<trkpt lat="48.9958185" lon="3.1884398"><ele></ele><time>2022-6-1T15:48:24Z</time></trkpt>
<trkpt lat="48.9958388" lon="3.1887850"><ele></ele><time>2022-6-1T15:48:27Z</time></trkpt>
<trkpt lat="48.9959104" lon="3.1890384"><ele></ele><time>2022-6-1T15:48:30Z</time></trkpt>
<trkpt lat="48.9957432" lon="3.1891494"><ele></ele><time>2022-6-1T15:48:33Z</time></trkpt>
<trkpt lat="48.9955796" lon="3.1893263"><ele></ele><time>2022-6-1T15:48:36Z</time></trkpt>
<trkpt lat="48.9954706" lon="3.1895734"><ele></ele><time>2022-6-1T15:48:39Z</time></trkpt>
<trkpt lat="48.9953514" lon="3.1898321"><ele></ele><time>2022-6-1T15:48:42Z</time></trkpt>
<trkpt lat="48.9952330" lon="3.1900817"><ele></ele><time>2022-6-1T15:48:45Z</time></trkpt>
<trkpt lat="48.9951083" lon="3.1903238"><ele></ele><time>2022-6-1T15:48:48Z</time></trkpt>
<trkpt lat="48.9949929" lon="3.1905628"><ele></ele><time>2022-6-1T15:48:51Z</time></trkpt>
<trkpt lat="48.9948707" lon="3.1907888"><ele></ele><time>2022-6-1T15:48:54Z</time></trkpt>
<trkpt lat="48.9947796" lon="3.1910311"><ele></ele><time>2022-6-1T15:48:57Z</time></trkpt>
<trkpt lat="48.9947169" lon="3.1913168"><ele></ele><time>2022-6-1T15:49:0Z</time></trkpt>
<trkpt lat="48.9946860" lon="3.1915869"><ele></ele><time>2022-6-1T15:49:3Z</time></trkpt>
<trkpt lat="48.9946745" lon="3.1918891"><ele></ele><time>2022-6-1T15:49:6Z</time></trkpt>
<trkpt lat="48.9944919" lon="3.1919828"><ele></ele><time>2022-6-1T15:49:9Z</time></trkpt>
<trkpt lat="48.9943462" lon="3.1921666"><ele></ele><time>2022-6-1T15:49:12Z</time></trkpt>
<trkpt lat="48.9941837" lon="3.1923780"><ele></ele><time>2022-6-1T15:49:15Z</time></trkpt>
<trkpt lat="48.9940156" lon="3.1925621"><ele></ele><time>2022-6-1T15:49:18Z</time></trkpt>
<trkpt lat="48.9938263" lon="3.1927026"><ele></ele><time>2022-6-1T15:49:21Z</time></trkpt>
<trkpt lat="48.9936245" lon="3.1927726"><ele></ele><time>2022-6-1T15:49:24Z</time></trkpt>
<trkpt lat="48.9934393" lon="3.1928648"><ele></ele><time>2022-6-1T15:49:27Z</time></trkpt>
<trkpt lat="48.9932634" lon="3.1930082"><ele></ele><time>2022-6-1T15:49:30Z</time></trkpt>
<trkpt lat="48.9930609" lon="3.1931139"><ele></ele><time>2022-6-1T15:49:33Z</time></trkpt>
<trkpt lat="48.9928617" lon="3.1932143"><ele></ele><time>2022-6-1T15:49:36Z</time></trkpt>
<trkpt lat="48.9926778" lon="3.1933414"><ele></ele><time>2022-6-1T15:49:39Z</time></trkpt>
<trkpt lat="48.9924728" lon="3.1934710"><ele></ele><time>2022-6-1T15:49:42Z</time></trkpt>
<trkpt lat="48.9922766" lon="3.1936058"><ele></ele><time>2022-6-1T15:49:45Z</time></trkpt>
<trkpt lat="48.9920718" lon="3.1936826"><ele></ele><time>2022-6-1T15:49:48Z</time></trkpt>
<trkpt lat="48.9918691" lon="3.1937548"><ele></ele><time>2022-6-1T15:49:51Z</time></trkpt>
<trkpt lat="48.9916579" lon="3.1938354"><ele></ele><time>2022-6-1T15:49:54Z</time></trkpt>
<trkpt lat="48.9914580" lon="3.1939213"><ele></ele><time>2022-6-1T15:49:57Z</time></trkpt>
<trkpt lat="48.9912584" lon="3.1940233"><ele></ele><time>2022-6-1T15:50:0Z</time></trkpt>
<trkpt lat="48.9910653" lon="3.1941472"><ele></ele><time>2022-6-1T15:50:3Z</time></trkpt>
<trkpt lat="48.9908929" lon="3.1942639"><ele></ele><time>2022-6-1T15:50:6Z</time></trkpt>
<trkpt lat="48.9907327" lon="3.1943905"><ele></ele><time>2022-6-1T15:50:9Z</time></trkpt>
<trkpt lat="48.9905506" lon="3.1945305"><ele></ele><time>2022-6-1T15:50:12Z</time></trkpt>
<trkpt lat="48.9903798" lon="3.1946511"><ele></ele><time>2022-6-1T15:50:15Z</time></trkpt>
<trkpt lat="48.9901892" lon="3.1948023"><ele></ele><time>2022-6-1T15:50:18Z</time></trkpt>
<trkpt lat="48.9900023" lon="3.1949838"><ele></ele><time>2022-6-1T15:50:21Z</time></trkpt>
<trkpt lat="48.9898299" lon="3.1951030"><ele></ele><time>2022-6-1T15:50:24Z</time></trkpt>
<trkpt lat="48.9896676" lon="3.1952276"><ele></ele><time>2022-6-1T15:50:27Z</time></trkpt>
<trkpt lat="48.9895184" lon="3.1954149"><ele></ele><time>2022-6-1T15:50:30Z</time></trkpt>
<trkpt lat="48.9893245" lon="3.1955388"><ele></ele><time>2022-6-1T15:50:33Z</time></trkpt>
<trkpt lat="48.9891453" lon="3.1956897"><ele></ele><time>2022-6-1T15:50:36Z</time></trkpt>
<trkpt lat="48.9889994" lon="3.1958522"><ele></ele><time>2022-6-1T15:50:39Z</time></trkpt>
<trkpt lat="48.9888126" lon="3.1959935"><ele></ele><time>2022-6-1T15:50:42Z</time></trkpt>
<trkpt lat="48.9886256" lon="3.1961253"><ele></ele><time>2022-6-1T15:50:45Z</time></trkpt>
<trkpt lat="48.9884516" lon="3.1962014"><ele></ele><time>2022-6-1T15:50:48Z</time></trkpt>
<trkpt lat="48.9882876" lon="3.1963266"><ele></ele><time>2022-6-1T15:50:51Z</time></trkpt>
<trkpt lat="48.9881076" lon="3.1964774"><ele></ele><time>2022-6-1T15:50:54Z</time></trkpt>
<trkpt lat="48.9879477" lon="3.1966111"><ele></ele><time>2022-6-1T15:50:57Z</time></trkpt>
<trkpt lat="48.9877691" lon="3.1967033"><ele></ele><time>2022-6-1T15:51:0Z</time></trkpt>
<trkpt lat="48.9875717" lon="3.1968148"><ele></ele><time>2022-6-1T15:51:3Z</time></trkpt>
<trkpt lat="48.9873796" lon="3.1969034"><ele></ele><time>2022-6-1T15:51:6Z</time></trkpt>
<trkpt lat="48.9872046" lon="3.1969893"><ele></ele><time>2022-6-1T15:51:9Z</time></trkpt>
<trkpt lat="48.9870018" lon="3.1970899"><ele></ele><time>2022-6-1T15:51:12Z</time></trkpt>
<trkpt lat="48.9867980" lon="3.1971724"><ele></ele><time>2022-6-1T15:51:15Z</time></trkpt>
<trkpt lat="48.9866184" lon="3.1972541"><ele></ele><time>2022-6-1T15:51:18Z</time></trkpt>
<trkpt lat="48.9864402" lon="3.1973389"><ele></ele><time>2022-6-1T15:51:21Z</time></trkpt>
<trkpt lat="48.9862338" lon="3.1974030"><ele></ele><time>2022-6-1T15:51:24Z</time></trkpt>
<trkpt lat="48.9860421" lon="3.1974437"><ele></ele><time>2022-6-1T15:51:27Z</time></trkpt>
<trkpt lat="48.9858479" lon="3.1974913"><ele></ele><time>2022-6-1T15:51:30Z</time></trkpt>
<trkpt lat="48.9856620" lon="3.1975636"><ele></ele><time>2022-6-1T15:51:33Z</time></trkpt>
<trkpt lat="48.9854856" lon="3.1976384"><ele></ele><time>2022-6-1T15:51:36Z</time></trkpt>
<trkpt lat="48.9852843" lon="3.1977165"><ele></ele><time>2022-6-1T15:51:39Z</time></trkpt>
<trkpt lat="48.9850878" lon="3.1978136"><ele></ele><time>2022-6-1T15:51:42Z</time></trkpt>
<trkpt lat="48.9849081" lon="3.1978488"><ele></ele><time>2022-6-1T15:51:45Z</time></trkpt>
<trkpt lat="48.9847104" lon="3.1978699"><ele></ele><time>2022-6-1T15:51:48Z</time></trkpt>
<trkpt lat="48.9845195" lon="3.1979212"><ele></ele><time>2022-6-1T15:51:51Z</time></trkpt>
<trkpt lat="48.9843064" lon="3.1979521"><ele></ele><time>2022-6-1T15:51:54Z</time></trkpt>
<trkpt lat="48.9841021" lon="3.1979565"><ele></ele><time>2022-6-1T15:51:57Z</time></trkpt>
<trkpt lat="48.9839208" lon="3.1979182"><ele></ele><time>2022-6-1T15:52:0Z</time></trkpt>
<trkpt lat="48.9837143" lon="3.1978900"><ele></ele><time>2022-6-1T15:52:3Z</time></trkpt>
<trkpt lat="48.9835017" lon="3.1979173"><ele></ele><time>2022-6-1T15:52:6Z</time></trkpt>
<trkpt lat="48.9833110" lon="3.1979829"><ele></ele><time>2022-6-1T15:52:9Z</time></trkpt>
<trkpt lat="48.9830754" lon="3.1980210"><ele></ele><time>2022-6-1T15:52:12Z</time></trkpt>
<trkpt lat="48.9828980" lon="3.1979639"><ele></ele><time>2022-6-1T15:52:15Z</time></trkpt>
<trkpt lat="48.9827127" lon="3.1979813"><ele></ele><time>2022-6-1T15:52:18Z</time></trkpt>
<trkpt lat="48.9825075" lon="3.1979961"><ele></ele><time>2022-6-1T15:52:21Z</time></trkpt>
<trkpt lat="48.9823176" lon="3.1979856"><ele></ele><time>2022-6-1T15:52:24Z</time></trkpt>
<trkpt lat="48.9821129" lon="3.1980046"><ele></ele><time>2022-6-1T15:52:27Z</time></trkpt>
<trkpt lat="48.9819353" lon="3.1979478"><ele></ele><time>2022-6-1T15:52:30Z</time></trkpt>
<trkpt lat="48.9817365" lon="3.1978786"><ele></ele><time>2022-6-1T15:52:33Z</time></trkpt>
<trkpt lat="48.9815484" lon="3.1978454"><ele></ele><time>2022-6-1T15:52:36Z</time></trkpt>
<trkpt lat="48.9813386" lon="3.1978504"><ele></ele><time>2022-6-1T15:52:39Z</time></trkpt>
<trkpt lat="48.9811375" lon="3.1978187"><ele></ele><time>2022-6-1T15:52:42Z</time></trkpt>
<trkpt lat="48.9809474" lon="3.1977934"><ele></ele><time>2022-6-1T15:52:45Z</time></trkpt>
<trkpt lat="48.9807428" lon="3.1977944"><ele></ele><time>2022-6-1T15:52:48Z</time></trkpt>
<trkpt lat="48.9805447" lon="3.1977908"><ele></ele><time>2022-6-1T15:52:51Z</time></trkpt>
<trkpt lat="48.9803479" lon="3.1977818"><ele></ele><time>2022-6-1T15:52:54Z</time></trkpt>
<trkpt lat="48.9801662" lon="3.1978062"><ele></ele><time>2022-6-1T15:52:57Z</time></trkpt>
<trkpt lat="48.9799685" lon="3.1977788"><ele></ele><time>2022-6-1T15:53:0Z</time></trkpt>
<trkpt lat="48.9797702" lon="3.1977963"><ele></ele><time>2022-6-1T15:53:3Z</time></trkpt>
<trkpt lat="48.9795769" lon="3.1978076"><ele></ele><time>2022-6-1T15:53:6Z</time></trkpt>
<trkpt lat="48.9793964" lon="3.1977871"><ele></ele><time>2022-6-1T15:53:9Z</time></trkpt>
<trkpt lat="48.9792135" lon="3.1977780"><ele></ele><time>2022-6-1T15:53:12Z</time></trkpt>
<trkpt lat="48.9790105" lon="3.1978200"><ele></ele><time>2022-6-1T15:53:15Z</time></trkpt>
<trkpt lat="48.9788281" lon="3.1977962"><ele></ele><time>2022-6-1T15:53:18Z</time></trkpt>
<trkpt lat="48.9786456" lon="3.1976834"><ele></ele><time>2022-6-1T15:53:21Z</time></trkpt>
<trkpt lat="48.9785672" lon="3.1979338"><ele></ele><time>2022-6-1T15:53:24Z</time></trkpt>
<trkpt lat="48.9785561" lon="3.1982341"><ele></ele><time>2022-6-1T15:53:27Z</time></trkpt>
<trkpt lat="48.9783528" lon="3.1982660"><ele></ele><time>2022-6-1T15:53:30Z</time></trkpt>
<trkpt lat="48.9781006" lon="3.1980698"><ele></ele><time>2022-6-1T15:53:33Z</time></trkpt>
<trkpt lat="48.9779024" lon="3.1980846"><ele></ele><time>2022-6-1T15:53:36Z</time></trkpt>
<trkpt lat="48.9777087" lon="3.1980485"><ele></ele><time>2022-6-1T15:53:39Z</time></trkpt>
<trkpt lat="48.9775232" lon="3.1980345"><ele></ele><time>2022-6-1T15:53:42Z</time></trkpt>
<trkpt lat="48.9773404" lon="3.1979953"><ele></ele><time>2022-6-1T15:53:45Z</time></trkpt>
<trkpt lat="48.9771644" lon="3.1979277"><ele></ele><time>2022-6-1T15:53:48Z</time></trkpt>
<trkpt lat="48.9769746" lon="3.1978560"><ele></ele><time>2022-6-1T15:53:51Z</time></trkpt>
<trkpt lat="48.9767904" lon="3.1977615"><ele></ele><time>2022-6-1T15:53:54Z</time></trkpt>
<trkpt lat="48.9768663" lon="3.1974897"><ele></ele><time>2022-6-1T15:53:57Z</time></trkpt>
<trkpt lat="48.9768818" lon="3.1972075"><ele></ele><time>2022-6-1T15:54:0Z</time></trkpt>
<trkpt lat="48.9769241" lon="3.1968886"><ele></ele><time>2022-6-1T15:54:3Z</time></trkpt>
<trkpt lat="48.9769051" lon="3.1972205"><ele></ele><time>2022-6-1T15:54:6Z</time></trkpt>
<trkpt lat="48.9768984" lon="3.1974970"><ele></ele><time>2022-6-1T15:54:9Z</time></trkpt>
<trkpt lat="48.9768550" lon="3.1977698"><ele></ele><time>2022-6-1T15:54:12Z</time></trkpt>
<trkpt lat="48.9766760" lon="3.1977135"><ele></ele><time>2022-6-1T15:54:15Z</time></trkpt>
<trkpt lat="48.9764900" lon="3.1976440"><ele></ele><time>2022-6-1T15:54:18Z</time></trkpt>
<trkpt lat="48.9762945" lon="3.1975697"><ele></ele><time>2022-6-1T15:54:21Z</time></trkpt>
<trkpt lat="48.9761152" lon="3.1974884"><ele></ele><time>2022-6-1T15:54:24Z</time></trkpt>
<trkpt lat="48.9759406" lon="3.1973977"><ele></ele><time>2022-6-1T15:54:27Z</time></trkpt>
<trkpt lat="48.9757636" lon="3.1973183"><ele></ele><time>2022-6-1T15:54:30Z</time></trkpt>
<trkpt lat="48.9755745" lon="3.1972177"><ele></ele><time>2022-6-1T15:54:33Z</time></trkpt>
<trkpt lat="48.9753786" lon="3.1971220"><ele></ele><time>2022-6-1T15:54:36Z</time></trkpt>
<trkpt lat="48.9751876" lon="3.1970192"><ele></ele><time>2022-6-1T15:54:39Z</time></trkpt>
<trkpt lat="48.9750036" lon="3.1969138"><ele></ele><time>2022-6-1T15:54:42Z</time></trkpt>
<trkpt lat="48.9748056" lon="3.1967959"><ele></ele><time>2022-6-1T15:54:45Z</time></trkpt>
<trkpt lat="48.9746017" lon="3.1966794"><ele></ele><time>2022-6-1T15:54:48Z</time></trkpt>
<trkpt lat="48.9744280" lon="3.1965671"><ele></ele><time>2022-6-1T15:54:51Z</time></trkpt>
<trkpt lat="48.9742423" lon="3.1964882"><ele></ele><time>2022-6-1T15:54:54Z</time></trkpt>
<trkpt lat="48.9740655" lon="3.1963472"><ele></ele><time>2022-6-1T15:54:57Z</time></trkpt>
<trkpt lat="48.9738744" lon="3.1961891"><ele></ele><time>2022-6-1T15:55:0Z</time></trkpt>
<trkpt lat="48.9736611" lon="3.1960387"><ele></ele><time>2022-6-1T15:55:3Z</time></trkpt>
<trkpt lat="48.9734609" lon="3.1958846"><ele></ele><time>2022-6-1T15:55:6Z</time></trkpt>
<trkpt lat="48.9732729" lon="3.1957554"><ele></ele><time>2022-6-1T15:55:9Z</time></trkpt>
<trkpt lat="48.9731109" lon="3.1956298"><ele></ele><time>2022-6-1T15:55:12Z</time></trkpt>
<trkpt lat="48.9729196" lon="3.1954823"><ele></ele><time>2022-6-1T15:55:15Z</time></trkpt>
<trkpt lat="48.9727532" lon="3.1953616"><ele></ele><time>2022-6-1T15:55:18Z</time></trkpt>
<trkpt lat="48.9725798" lon="3.1952442"><ele></ele><time>2022-6-1T15:55:21Z</time></trkpt>
<trkpt lat="48.9723953" lon="3.1951166"><ele></ele><time>2022-6-1T15:55:24Z</time></trkpt>
<trkpt lat="48.9722156" lon="3.1949665"><ele></ele><time>2022-6-1T15:55:27Z</time></trkpt>
<trkpt lat="48.9720314" lon="3.1948176"><ele></ele><time>2022-6-1T15:55:30Z</time></trkpt>
<trkpt lat="48.9718551" lon="3.1946701"><ele></ele><time>2022-6-1T15:55:33Z</time></trkpt>
<trkpt lat="48.9716669" lon="3.1945200"><ele></ele><time>2022-6-1T15:55:36Z</time></trkpt>
<trkpt lat="48.9714753" lon="3.1943756"><ele></ele><time>2022-6-1T15:55:39Z</time></trkpt>
<trkpt lat="48.9712930" lon="3.1942358"><ele></ele><time>2022-6-1T15:55:42Z</time></trkpt>
<trkpt lat="48.9711237" lon="3.1940907"><ele></ele><time>2022-6-1T15:55:45Z</time></trkpt>
<trkpt lat="48.9709444" lon="3.1939193"><ele></ele><time>2022-6-1T15:55:48Z</time></trkpt>
<trkpt lat="48.9707651" lon="3.1937289"><ele></ele><time>2022-6-1T15:55:51Z</time></trkpt>
<trkpt lat="48.9705966" lon="3.1935414"><ele></ele><time>2022-6-1T15:55:54Z</time></trkpt>
<trkpt lat="48.9704451" lon="3.1933784"><ele></ele><time>2022-6-1T15:55:57Z</time></trkpt>
<trkpt lat="48.9702775" lon="3.1932040"><ele></ele><time>2022-6-1T15:56:0Z</time></trkpt>
<trkpt lat="48.9703472" lon="3.1929074"><ele></ele><time>2022-6-1T15:56:3Z</time></trkpt>
<trkpt lat="48.9704599" lon="3.1926454"><ele></ele><time>2022-6-1T15:56:6Z</time></trkpt>
<trkpt lat="48.9705397" lon="3.1923794"><ele></ele><time>2022-6-1T15:56:9Z</time></trkpt>
<trkpt lat="48.9706161" lon="3.1920869"><ele></ele><time>2022-6-1T15:56:12Z</time></trkpt>
<trkpt lat="48.9706855" lon="3.1917943"><ele></ele><time>2022-6-1T15:56:15Z</time></trkpt>
<trkpt lat="48.9707797" lon="3.1915021"><ele></ele><time>2022-6-1T15:56:18Z</time></trkpt>
<trkpt lat="48.9708546" lon="3.1912503"><ele></ele><time>2022-6-1T15:56:21Z</time></trkpt>
<trkpt lat="48.9709488" lon="3.1909706"><ele></ele><time>2022-6-1T15:56:24Z</time></trkpt>
<trkpt lat="48.9710038" lon="3.1907036"><ele></ele><time>2022-6-1T15:56:27Z</time></trkpt>
<trkpt lat="48.9708033" lon="3.1906021"><ele></ele><time>2022-6-1T15:56:30Z</time></trkpt>
<trkpt lat="48.9706164" lon="3.1905129"><ele></ele><time>2022-6-1T15:56:33Z</time></trkpt>
<trkpt lat="48.9704295" lon="3.1903850"><ele></ele><time>2022-6-1T15:56:36Z</time></trkpt>
<trkpt lat="48.9702618" lon="3.1902758"><ele></ele><time>2022-6-1T15:56:39Z</time></trkpt>
<trkpt lat="48.9702161" lon="3.1900010"><ele></ele><time>2022-6-1T15:56:42Z</time></trkpt>
<trkpt lat="48.9702539" lon="3.1897268"><ele></ele><time>2022-6-1T15:56:45Z</time></trkpt>
<trkpt lat="48.9703000" lon="3.1894338"><ele></ele><time>2022-6-1T15:56:48Z</time></trkpt>
<trkpt lat="48.9703467" lon="3.1891600"><ele></ele><time>2022-6-1T15:56:51Z</time></trkpt>
<trkpt lat="48.9703941" lon="3.1888790"><ele></ele><time>2022-6-1T15:56:54Z</time></trkpt>
<trkpt lat="48.9703939" lon="3.1886045"><ele></ele><time>2022-6-1T15:56:57Z</time></trkpt>
<trkpt lat="48.9703762" lon="3.1889008"><ele></ele><time>2022-6-1T15:57:0Z</time></trkpt>
<trkpt lat="48.9703295" lon="3.1891739"><ele></ele><time>2022-6-1T15:57:3Z</time></trkpt>
<trkpt lat="48.9702817" lon="3.1894510"><ele></ele><time>2022-6-1T15:57:6Z</time></trkpt>
<trkpt lat="48.9702320" lon="3.1897452"><ele></ele><time>2022-6-1T15:57:9Z</time></trkpt>
<trkpt lat="48.9701853" lon="3.1900797"><ele></ele><time>2022-6-1T15:57:12Z</time></trkpt>
<trkpt lat="48.9703298" lon="3.1903200"><ele></ele><time>2022-6-1T15:57:15Z</time></trkpt>
<trkpt lat="48.9705127" lon="3.1904533"><ele></ele><time>2022-6-1T15:57:18Z</time></trkpt>
<trkpt lat="48.9706859" lon="3.1905703"><ele></ele><time>2022-6-1T15:57:21Z</time></trkpt>
<trkpt lat="48.9708634" lon="3.1906148"><ele></ele><time>2022-6-1T15:57:24Z</time></trkpt>
<trkpt lat="48.9709535" lon="3.1908584"><ele></ele><time>2022-6-1T15:57:27Z</time></trkpt>
<trkpt lat="48.9708548" lon="3.1911053"><ele></ele><time>2022-6-1T15:57:30Z</time></trkpt>
<trkpt lat="48.9707729" lon="3.1913561"><ele></ele><time>2022-6-1T15:57:33Z</time></trkpt>
<trkpt lat="48.9706853" lon="3.1916066"><ele></ele><time>2022-6-1T15:57:36Z</time></trkpt>
<trkpt lat="48.9706158" lon="3.1918753"><ele></ele><time>2022-6-1T15:57:39Z</time></trkpt>
<trkpt lat="48.9705102" lon="3.1921305"><ele></ele><time>2022-6-1T15:57:42Z</time></trkpt>
<trkpt lat="48.9703957" lon="3.1923784"><ele></ele><time>2022-6-1T15:57:45Z</time></trkpt>
<trkpt lat="48.9703288" lon="3.1926373"><ele></ele><time>2022-6-1T15:57:48Z</time></trkpt>
<trkpt lat="48.9702209" lon="3.1929047"><ele></ele><time>2022-6-1T15:57:51Z</time></trkpt>
<trkpt lat="48.9700948" lon="3.1931248"><ele></ele><time>2022-6-1T15:57:54Z</time></trkpt>
<trkpt lat="48.9699447" lon="3.1933409"><ele></ele><time>2022-6-1T15:57:57Z</time></trkpt>
<trkpt lat="48.9697756" lon="3.1935461"><ele></ele><time>2022-6-1T15:58:0Z</time></trkpt>
<trkpt lat="48.9696048" lon="3.1937144"><ele></ele><time>2022-6-1T15:58:3Z</time></trkpt>
<trkpt lat="48.9694163" lon="3.1938371"><ele></ele><time>2022-6-1T15:58:6Z</time></trkpt>
<trkpt lat="48.9692332" lon="3.1939383"><ele></ele><time>2022-6-1T15:58:9Z</time></trkpt>
<trkpt lat="48.9690367" lon="3.1940527"><ele></ele><time>2022-6-1T15:58:12Z</time></trkpt>
<trkpt lat="48.9688732" lon="3.1942002"><ele></ele><time>2022-6-1T15:58:15Z</time></trkpt>
<trkpt lat="48.9686894" lon="3.1943162"><ele></ele><time>2022-6-1T15:58:18Z</time></trkpt>
<trkpt lat="48.9685321" lon="3.1945035"><ele></ele><time>2022-6-1T15:58:21Z</time></trkpt>
<trkpt lat="48.9683841" lon="3.1946704"><ele></ele><time>2022-6-1T15:58:24Z</time></trkpt>
<trkpt lat="48.9682313" lon="3.1948354"><ele></ele><time>2022-6-1T15:58:27Z</time></trkpt>
<trkpt lat="48.9680726" lon="3.1950273"><ele></ele><time>2022-6-1T15:58:30Z</time></trkpt>
<trkpt lat="48.9679228" lon="3.1952240"><ele></ele><time>2022-6-1T15:58:33Z</time></trkpt>
<trkpt lat="48.9677816" lon="3.1954152"><ele></ele><time>2022-6-1T15:58:36Z</time></trkpt>
<trkpt lat="48.9676487" lon="3.1956302"><ele></ele><time>2022-6-1T15:58:39Z</time></trkpt>
<trkpt lat="48.9675088" lon="3.1958548"><ele></ele><time>2022-6-1T15:58:42Z</time></trkpt>
<trkpt lat="48.9673820" lon="3.1960579"><ele></ele><time>2022-6-1T15:58:45Z</time></trkpt>
<trkpt lat="48.9672711" lon="3.1962972"><ele></ele><time>2022-6-1T15:58:48Z</time></trkpt>
<trkpt lat="48.9671689" lon="3.1965324"><ele></ele><time>2022-6-1T15:58:51Z</time></trkpt>
<trkpt lat="48.9670503" lon="3.1967792"><ele></ele><time>2022-6-1T15:58:54Z</time></trkpt>
<trkpt lat="48.9669422" lon="3.1970226"><ele></ele><time>2022-6-1T15:58:57Z</time></trkpt>
<trkpt lat="48.9668267" lon="3.1972829"><ele></ele><time>2022-6-1T15:59:0Z</time></trkpt>
<trkpt lat="48.9667202" lon="3.1975332"><ele></ele><time>2022-6-1T15:59:3Z</time></trkpt>
<trkpt lat="48.9666088" lon="3.1977868"><ele></ele><time>2022-6-1T15:59:6Z</time></trkpt>
<trkpt lat="48.9664916" lon="3.1980456"><ele></ele><time>2022-6-1T15:59:9Z</time></trkpt>
<trkpt lat="48.9663895" lon="3.1983112"><ele></ele><time>2022-6-1T15:59:12Z</time></trkpt>
<trkpt lat="48.9662865" lon="3.1985361"><ele></ele><time>2022-6-1T15:59:15Z</time></trkpt>
<trkpt lat="48.9661882" lon="3.1987714"><ele></ele><time>2022-6-1T15:59:18Z</time></trkpt>
<trkpt lat="48.9660504" lon="3.1990018"><ele></ele><time>2022-6-1T15:59:21Z</time></trkpt>
<trkpt lat="48.9659021" lon="3.1992221"><ele></ele><time>2022-6-1T15:59:24Z</time></trkpt>
<trkpt lat="48.9657523" lon="3.1994229"><ele></ele><time>2022-6-1T15:59:27Z</time></trkpt>
<trkpt lat="48.9656332" lon="3.1996324"><ele></ele><time>2022-6-1T15:59:30Z</time></trkpt>
<trkpt lat="48.9655316" lon="3.1998609"><ele></ele><time>2022-6-1T15:59:33Z</time></trkpt>
<trkpt lat="48.9653897" lon="3.2000350"><ele></ele><time>2022-6-1T15:59:36Z</time></trkpt>
<trkpt lat="48.9651989" lon="3.2001818"><ele></ele><time>2022-6-1T15:59:39Z</time></trkpt>
<trkpt lat="48.9650301" lon="3.2002986"><ele></ele><time>2022-6-1T15:59:42Z</time></trkpt>
<trkpt lat="48.9648520" lon="3.2004126"><ele></ele><time>2022-6-1T15:59:45Z</time></trkpt>
<trkpt lat="48.9646663" lon="3.2005913"><ele></ele><time>2022-6-1T15:59:48Z</time></trkpt>
<trkpt lat="48.9645147" lon="3.2008228"><ele></ele><time>2022-6-1T15:59:51Z</time></trkpt>
<trkpt lat="48.9644166" lon="3.2011515"><ele></ele><time>2022-6-1T15:59:54Z</time></trkpt>
<trkpt lat="48.9644029" lon="3.2014466"><ele></ele><time>2022-6-1T15:59:57Z</time></trkpt>
<trkpt lat="48.9644476" lon="3.2017641"><ele></ele><time>2022-6-1T16:0:0Z</time></trkpt>
<trkpt lat="48.9645628" lon="3.2020579"><ele></ele><time>2022-6-1T16:0:3Z</time></trkpt>
<trkpt lat="48.9647557" lon="3.2022798"><ele></ele><time>2022-6-1T16:0:6Z</time></trkpt>
<trkpt lat="48.9649697" lon="3.2024825"><ele></ele><time>2022-6-1T16:0:9Z</time></trkpt>
<trkpt lat="48.9651806" lon="3.2026939"><ele></ele><time>2022-6-1T16:0:12Z</time></trkpt>
<trkpt lat="48.9653694" lon="3.2029127"><ele></ele><time>2022-6-1T16:0:15Z</time></trkpt>
<trkpt lat="48.9654646" lon="3.2031609"><ele></ele><time>2022-6-1T16:0:18Z</time></trkpt>
<trkpt lat="48.9653779" lon="3.2034327"><ele></ele><time>2022-6-1T16:0:21Z</time></trkpt>
<trkpt lat="48.9652792" lon="3.2037196"><ele></ele><time>2022-6-1T16:0:24Z</time></trkpt>
<trkpt lat="48.9651801" lon="3.2040131"><ele></ele><time>2022-6-1T16:0:27Z</time></trkpt>
<trkpt lat="48.9650985" lon="3.2043154"><ele></ele><time>2022-6-1T16:0:30Z</time></trkpt>
<trkpt lat="48.9649796" lon="3.2046086"><ele></ele><time>2022-6-1T16:0:33Z</time></trkpt>
<trkpt lat="48.9648960" lon="3.2048520"><ele></ele><time>2022-6-1T16:0:36Z</time></trkpt>
<trkpt lat="48.9648029" lon="3.2051464"><ele></ele><time>2022-6-1T16:0:39Z</time></trkpt>
<trkpt lat="48.9646922" lon="3.2054071"><ele></ele><time>2022-6-1T16:0:42Z</time></trkpt>
<trkpt lat="48.9645915" lon="3.2056698"><ele></ele><time>2022-6-1T16:0:45Z</time></trkpt>
<trkpt lat="48.9644860" lon="3.2059027"><ele></ele><time>2022-6-1T16:0:48Z</time></trkpt>
<trkpt lat="48.9643516" lon="3.2060986"><ele></ele><time>2022-6-1T16:0:51Z</time></trkpt>
<trkpt lat="48.9642430" lon="3.2063493"><ele></ele><time>2022-6-1T16:0:54Z</time></trkpt>
<trkpt lat="48.9641353" lon="3.2066217"><ele></ele><time>2022-6-1T16:0:57Z</time></trkpt>
<trkpt lat="48.9640177" lon="3.2068829"><ele></ele><time>2022-6-1T16:1:0Z</time></trkpt>
<trkpt lat="48.9639220" lon="3.2071164"><ele></ele><time>2022-6-1T16:1:3Z</time></trkpt>
<trkpt lat="48.9637957" lon="3.2073715"><ele></ele><time>2022-6-1T16:1:6Z</time></trkpt>
<trkpt lat="48.9636803" lon="3.2076132"><ele></ele><time>2022-6-1T16:1:9Z</time></trkpt>
<trkpt lat="48.9635789" lon="3.2078780"><ele></ele><time>2022-6-1T16:1:12Z</time></trkpt>
<trkpt lat="48.9634774" lon="3.2081794"><ele></ele><time>2022-6-1T16:1:15Z</time></trkpt>
<trkpt lat="48.9633848" lon="3.2084644"><ele></ele><time>2022-6-1T16:1:18Z</time></trkpt>
<trkpt lat="48.9632733" lon="3.2087617"><ele></ele><time>2022-6-1T16:1:21Z</time></trkpt>
<trkpt lat="48.9631759" lon="3.2090519"><ele></ele><time>2022-6-1T16:1:24Z</time></trkpt>
<trkpt lat="48.9630782" lon="3.2093207"><ele></ele><time>2022-6-1T16:1:27Z</time></trkpt>
<trkpt lat="48.9629440" lon="3.2095704"><ele></ele><time>2022-6-1T16:1:30Z</time></trkpt>
<trkpt lat="48.9627865" lon="3.2097652"><ele></ele><time>2022-6-1T16:1:33Z</time></trkpt>
<trkpt lat="48.9626370" lon="3.2099791"><ele></ele><time>2022-6-1T16:1:36Z</time></trkpt>
<trkpt lat="48.9625133" lon="3.2102066"><ele></ele><time>2022-6-1T16:1:39Z</time></trkpt>
<trkpt lat="48.9623934" lon="3.2104172"><ele></ele><time>2022-6-1T16:1:42Z</time></trkpt>
<trkpt lat="48.9622712" lon="3.2106659"><ele></ele><time>2022-6-1T16:1:45Z</time></trkpt>
<trkpt lat="48.9620524" lon="3.2106554"><ele></ele><time>2022-6-1T16:1:48Z</time></trkpt>
<trkpt lat="48.9618911" lon="3.2107822"><ele></ele><time>2022-6-1T16:1:51Z</time></trkpt>
<trkpt lat="48.9617250" lon="3.2109734"><ele></ele><time>2022-6-1T16:1:54Z</time></trkpt>
<trkpt lat="48.9615528" lon="3.2111041"><ele></ele><time>2022-6-1T16:1:57Z</time></trkpt>
<trkpt lat="48.9614817" lon="3.2113746"><ele></ele><time>2022-6-1T16:2:0Z</time></trkpt>
<trkpt lat="48.9614056" lon="3.2116422"><ele></ele><time>2022-6-1T16:2:3Z</time></trkpt>
<trkpt lat="48.9613124" lon="3.2119274"><ele></ele><time>2022-6-1T16:2:6Z</time></trkpt>
<trkpt lat="48.9612310" lon="3.2122158"><ele></ele><time>2022-6-1T16:2:9Z</time></trkpt>
<trkpt lat="48.9611743" lon="3.2125192"><ele></ele><time>2022-6-1T16:2:12Z</time></trkpt>
<trkpt lat="48.9611202" lon="3.2127842"><ele></ele><time>2022-6-1T16:2:15Z</time></trkpt>
<trkpt lat="48.9610060" lon="3.2130386"><ele></ele><time>2022-6-1T16:2:18Z</time></trkpt>
<trkpt lat="48.9609317" lon="3.2132950"><ele></ele><time>2022-6-1T16:2:21Z</time></trkpt>
<trkpt lat="48.9608873" lon="3.2135985"><ele></ele><time>2022-6-1T16:2:24Z</time></trkpt>
<trkpt lat="48.9607890" lon="3.2138491"><ele></ele><time>2022-6-1T16:2:27Z</time></trkpt>
<trkpt lat="48.9607204" lon="3.2141215"><ele></ele><time>2022-6-1T16:2:30Z</time></trkpt>
<trkpt lat="48.9606765" lon="3.2144274"><ele></ele><time>2022-6-1T16:2:33Z</time></trkpt>
<trkpt lat="48.9606013" lon="3.2146969"><ele></ele><time>2022-6-1T16:2:36Z</time></trkpt>
<trkpt lat="48.9604232" lon="3.2148469"><ele></ele><time>2022-6-1T16:2:39Z</time></trkpt>
<trkpt lat="48.9602367" lon="3.2149003"><ele></ele><time>2022-6-1T16:2:42Z</time></trkpt>
<trkpt lat="48.9600580" lon="3.2148404"><ele></ele><time>2022-6-1T16:2:45Z</time></trkpt>
<trkpt lat="48.9598589" lon="3.2148173"><ele></ele><time>2022-6-1T16:2:48Z</time></trkpt>
<trkpt lat="48.9596650" lon="3.2147200"><ele></ele><time>2022-6-1T16:2:51Z</time></trkpt>
<trkpt lat="48.9594904" lon="3.2146400"><ele></ele><time>2022-6-1T16:2:54Z</time></trkpt>
<trkpt lat="48.9593167" lon="3.2145493"><ele></ele><time>2022-6-1T16:2:57Z</time></trkpt>
<trkpt lat="48.9591667" lon="3.2143889"><ele></ele><time>2022-6-1T16:3:0Z</time></trkpt>
<trkpt lat="48.9589905" lon="3.2142323"><ele></ele><time>2022-6-1T16:3:3Z</time></trkpt>
<trkpt lat="48.9588805" lon="3.2140057"><ele></ele><time>2022-6-1T16:3:6Z</time></trkpt>
<trkpt lat="48.9587056" lon="3.2138276"><ele></ele><time>2022-6-1T16:3:9Z</time></trkpt>
<trkpt lat="48.9585359" lon="3.2136538"><ele></ele><time>2022-6-1T16:3:12Z</time></trkpt>
<trkpt lat="48.9583750" lon="3.2134695"><ele></ele><time>2022-6-1T16:3:15Z</time></trkpt>
<trkpt lat="48.9582120" lon="3.2132633"><ele></ele><time>2022-6-1T16:3:18Z</time></trkpt>
<trkpt lat="48.9580655" lon="3.2130539"><ele></ele><time>2022-6-1T16:3:21Z</time></trkpt>
<trkpt lat="48.9579154" lon="3.2128677"><ele></ele><time>2022-6-1T16:3:24Z</time></trkpt>
<trkpt lat="48.9577588" lon="3.2126804"><ele></ele><time>2022-6-1T16:3:27Z</time></trkpt>
<trkpt lat="48.9576002" lon="3.2125185"><ele></ele><time>2022-6-1T16:3:30Z</time></trkpt>
<trkpt lat="48.9574202" lon="3.2123744"><ele></ele><time>2022-6-1T16:3:33Z</time></trkpt>
<trkpt lat="48.9572530" lon="3.2122445"><ele></ele><time>2022-6-1T16:3:36Z</time></trkpt>
<trkpt lat="48.9570724" lon="3.2121165"><ele></ele><time>2022-6-1T16:3:39Z</time></trkpt>
<trkpt lat="48.9569020" lon="3.2120117"><ele></ele><time>2022-6-1T16:3:42Z</time></trkpt>
<trkpt lat="48.9567218" lon="3.2118957"><ele></ele><time>2022-6-1T16:3:45Z</time></trkpt>
<trkpt lat="48.9565364" lon="3.2117744"><ele></ele><time>2022-6-1T16:3:48Z</time></trkpt>
<trkpt lat="48.9563837" lon="3.2116138"><ele></ele><time>2022-6-1T16:3:51Z</time></trkpt>
<trkpt lat="48.9562223" lon="3.2114769"><ele></ele><time>2022-6-1T16:3:54Z</time></trkpt>
<trkpt lat="48.9560616" lon="3.2113048"><ele></ele><time>2022-6-1T16:3:57Z</time></trkpt>
<trkpt lat="48.9558921" lon="3.2111522"><ele></ele><time>2022-6-1T16:4:0Z</time></trkpt>
<trkpt lat="48.9557260" lon="3.2109927"><ele></ele><time>2022-6-1T16:4:3Z</time></trkpt>
<trkpt lat="48.9555514" lon="3.2108797"><ele></ele><time>2022-6-1T16:4:6Z</time></trkpt>
<trkpt lat="48.9553748" lon="3.2107470"><ele></ele><time>2022-6-1T16:4:9Z</time></trkpt>
<trkpt lat="48.9551878" lon="3.2106359"><ele></ele><time>2022-6-1T16:4:12Z</time></trkpt>
<trkpt lat="48.9550024" lon="3.2105138"><ele></ele><time>2022-6-1T16:4:15Z</time></trkpt>
<trkpt lat="48.9548222" lon="3.2104005"><ele></ele><time>2022-6-1T16:4:18Z</time></trkpt>
<trkpt lat="48.9546410" lon="3.2102892"><ele></ele><time>2022-6-1T16:4:21Z</time></trkpt>
<trkpt lat="48.9544590" lon="3.2101597"><ele></ele><time>2022-6-1T16:4:24Z</time></trkpt>
<trkpt lat="48.9542894" lon="3.2100474"><ele></ele><time>2022-6-1T16:4:27Z</time></trkpt>
<trkpt lat="48.9540950" lon="3.2099308"><ele></ele><time>2022-6-1T16:4:30Z</time></trkpt>
<trkpt lat="48.9539257" lon="3.2098201"><ele></ele><time>2022-6-1T16:4:33Z</time></trkpt>
<trkpt lat="48.9537346" lon="3.2097108"><ele></ele><time>2022-6-1T16:4:36Z</time></trkpt>
<trkpt lat="48.9535570" lon="3.2095862"><ele></ele><time>2022-6-1T16:4:39Z</time></trkpt>
<trkpt lat="48.9533811" lon="3.2094613"><ele></ele><time>2022-6-1T16:4:42Z</time></trkpt>
<trkpt lat="48.9532135" lon="3.2093504"><ele></ele><time>2022-6-1T16:4:45Z</time></trkpt>
<trkpt lat="48.9530326" lon="3.2092345"><ele></ele><time>2022-6-1T16:4:48Z</time></trkpt>
<trkpt lat="48.9528461" lon="3.2091233"><ele></ele><time>2022-6-1T16:4:51Z</time></trkpt>
<trkpt lat="48.9526835" lon="3.2089967"><ele></ele><time>2022-6-1T16:4:54Z</time></trkpt>
<trkpt lat="48.9525914" lon="3.2087283"><ele></ele><time>2022-6-1T16:4:57Z</time></trkpt>
<trkpt lat="48.9525333" lon="3.2084260"><ele></ele><time>2022-6-1T16:5:0Z</time></trkpt>
<trkpt lat="48.9524744" lon="3.2081458"><ele></ele><time>2022-6-1T16:5:3Z</time></trkpt>
<trkpt lat="48.9524095" lon="3.2078637"><ele></ele><time>2022-6-1T16:5:6Z</time></trkpt>
<trkpt lat="48.9523783" lon="3.2075900"><ele></ele><time>2022-6-1T16:5:9Z</time></trkpt>
<trkpt lat="48.9522732" lon="3.2073616"><ele></ele><time>2022-6-1T16:5:12Z</time></trkpt>
<trkpt lat="48.9522177" lon="3.2070996"><ele></ele><time>2022-6-1T16:5:15Z</time></trkpt>
<trkpt lat="48.9522169" lon="3.2068257"><ele></ele><time>2022-6-1T16:5:18Z</time></trkpt>
<trkpt lat="48.9520847" lon="3.2066198"><ele></ele><time>2022-6-1T16:5:21Z</time></trkpt>
<trkpt lat="48.9520712" lon="3.2063423"><ele></ele><time>2022-6-1T16:5:24Z</time></trkpt>
<trkpt lat="48.9520157" lon="3.2060711"><ele></ele><time>2022-6-1T16:5:27Z</time></trkpt>
<trkpt lat="48.9519655" lon="3.2057668"><ele></ele><time>2022-6-1T16:5:30Z</time></trkpt>
<trkpt lat="48.9518546" lon="3.2055293"><ele></ele><time>2022-6-1T16:5:33Z</time></trkpt>
<trkpt lat="48.9517998" lon="3.2052044"><ele></ele><time>2022-6-1T16:5:36Z</time></trkpt>
<trkpt lat="48.9517256" lon="3.2049250"><ele></ele><time>2022-6-1T16:5:39Z</time></trkpt>
<trkpt lat="48.9516947" lon="3.2046213"><ele></ele><time>2022-6-1T16:5:42Z</time></trkpt>
<trkpt lat="48.9516234" lon="3.2042898"><ele></ele><time>2022-6-1T16:5:45Z</time></trkpt>
<trkpt lat="48.9515464" lon="3.2040170"><ele></ele><time>2022-6-1T16:5:48Z</time></trkpt>
<trkpt lat="48.9514960" lon="3.2037397"><ele></ele><time>2022-6-1T16:5:51Z</time></trkpt>
<trkpt lat="48.9514618" lon="3.2034521"><ele></ele><time>2022-6-1T16:5:54Z</time></trkpt>
<trkpt lat="48.9513394" lon="3.2031903"><ele></ele><time>2022-6-1T16:5:57Z</time></trkpt>
<trkpt lat="48.9513089" lon="3.2028808"><ele></ele><time>2022-6-1T16:6:0Z</time></trkpt>
<trkpt lat="48.9513126" lon="3.2025863"><ele></ele><time>2022-6-1T16:6:3Z</time></trkpt>
<trkpt lat="48.9513435" lon="3.2022847"><ele></ele><time>2022-6-1T16:6:6Z</time></trkpt>
<trkpt lat="48.9513581" lon="3.2019804"><ele></ele><time>2022-6-1T16:6:9Z</time></trkpt>
<trkpt lat="48.9513574" lon="3.2015684"><ele></ele><time>2022-6-1T16:6:12Z</time></trkpt>
<trkpt lat="48.9512952" lon="3.2012837"><ele></ele><time>2022-6-1T16:6:15Z</time></trkpt>
<trkpt lat="48.9512675" lon="3.2009835"><ele></ele><time>2022-6-1T16:6:18Z</time></trkpt>
<trkpt lat="48.9511903" lon="3.2006843"><ele></ele><time>2022-6-1T16:6:21Z</time></trkpt>
<trkpt lat="48.9511229" lon="3.2004016"><ele></ele><time>2022-6-1T16:6:24Z</time></trkpt>
<trkpt lat="48.9511671" lon="3.2001354"><ele></ele><time>2022-6-1T16:6:27Z</time></trkpt>
<trkpt lat="48.9511923" lon="3.1998344"><ele></ele><time>2022-6-1T16:6:30Z</time></trkpt>
<trkpt lat="48.9512381" lon="3.1995546"><ele></ele><time>2022-6-1T16:6:33Z</time></trkpt>
<trkpt lat="48.9510997" lon="3.1993273"><ele></ele><time>2022-6-1T16:6:36Z</time></trkpt>
<trkpt lat="48.9510184" lon="3.1990561"><ele></ele><time>2022-6-1T16:6:39Z</time></trkpt>
<trkpt lat="48.9509369" lon="3.1988090"><ele></ele><time>2022-6-1T16:6:42Z</time></trkpt>
<trkpt lat="48.9507827" lon="3.1986061"><ele></ele><time>2022-6-1T16:6:45Z</time></trkpt>
<trkpt lat="48.9507325" lon="3.1983177"><ele></ele><time>2022-6-1T16:6:48Z</time></trkpt>
<trkpt lat="48.9506697" lon="3.1980289"><ele></ele><time>2022-6-1T16:6:51Z</time></trkpt>
<trkpt lat="48.9506000" lon="3.1977147"><ele></ele><time>2022-6-1T16:6:54Z</time></trkpt>
<trkpt lat="48.9505401" lon="3.1973958"><ele></ele><time>2022-6-1T16:6:57Z</time></trkpt>
<trkpt lat="48.9505668" lon="3.1971061"><ele></ele><time>2022-6-1T16:7:0Z</time></trkpt>
<trkpt lat="48.9504993" lon="3.1968114"><ele></ele><time>2022-6-1T16:7:3Z</time></trkpt>
<trkpt lat="48.9503551" lon="3.1965768"><ele></ele><time>2022-6-1T16:7:6Z</time></trkpt>
<trkpt lat="48.9502425" lon="3.1963015"><ele></ele><time>2022-6-1T16:7:9Z</time></trkpt>
<trkpt lat="48.9502462" lon="3.1960035"><ele></ele><time>2022-6-1T16:7:12Z</time></trkpt>
<trkpt lat="48.9502484" lon="3.1957229"><ele></ele><time>2022-6-1T16:7:15Z</time></trkpt>
<trkpt lat="48.9502894" lon="3.1954313"><ele></ele><time>2022-6-1T16:7:18Z</time></trkpt>
<trkpt lat="48.9502721" lon="3.1951273"><ele></ele><time>2022-6-1T16:7:21Z</time></trkpt>
<trkpt lat="48.9501774" lon="3.1948869"><ele></ele><time>2022-6-1T16:7:24Z</time></trkpt>
<trkpt lat="48.9500083" lon="3.1947504"><ele></ele><time>2022-6-1T16:7:27Z</time></trkpt>
<trkpt lat="48.9498596" lon="3.1945859"><ele></ele><time>2022-6-1T16:7:30Z</time></trkpt>
<trkpt lat="48.9499176" lon="3.1943014"><ele></ele><time>2022-6-1T16:7:33Z</time></trkpt>
<trkpt lat="48.9500709" lon="3.1941309"><ele></ele><time>2022-6-1T16:7:36Z</time></trkpt>
<trkpt lat="48.9502072" lon="3.1938861"><ele></ele><time>2022-6-1T16:7:39Z</time></trkpt>
<trkpt lat="48.9502457" lon="3.1936128"><ele></ele><time>2022-6-1T16:7:42Z</time></trkpt>
<trkpt lat="48.9502827" lon="3.1933249"><ele></ele><time>2022-6-1T16:7:45Z</time></trkpt>
<trkpt lat="48.9503581" lon="3.1930628"><ele></ele><time>2022-6-1T16:7:48Z</time></trkpt>
<trkpt lat="48.9503770" lon="3.1927888"><ele></ele><time>2022-6-1T16:7:51Z</time></trkpt>
<trkpt lat="48.9503722" lon="3.1924922"><ele></ele><time>2022-6-1T16:7:54Z</time></trkpt>
<trkpt lat="48.9503436" lon="3.1922095"><ele></ele><time>2022-6-1T16:7:57Z</time></trkpt>
<trkpt lat="48.9503070" lon="3.1919278"><ele></ele><time>2022-6-1T16:8:0Z</time></trkpt>
<trkpt lat="48.9502247" lon="3.1916787"><ele></ele><time>2022-6-1T16:8:3Z</time></trkpt>
<trkpt lat="48.9500639" lon="3.1915549"><ele></ele><time>2022-6-1T16:8:6Z</time></trkpt>
<trkpt lat="48.9498960" lon="3.1914460"><ele></ele><time>2022-6-1T16:8:9Z</time></trkpt>
<trkpt lat="48.9499371" lon="3.1911713"><ele></ele><time>2022-6-1T16:8:12Z</time></trkpt>
<trkpt lat="48.9500390" lon="3.1909449"><ele></ele><time>2022-6-1T16:8:15Z</time></trkpt>
<trkpt lat="48.9501107" lon="3.1906442"><ele></ele><time>2022-6-1T16:8:18Z</time></trkpt>
<trkpt lat="48.9501853" lon="3.1903742"><ele></ele><time>2022-6-1T16:8:21Z</time></trkpt>
<trkpt lat="48.9503003" lon="3.1901044"><ele></ele><time>2022-6-1T16:8:24Z</time></trkpt>
<trkpt lat="48.9504012" lon="3.1898077"><ele></ele><time>2022-6-1T16:8:27Z</time></trkpt>
<trkpt lat="48.9504890" lon="3.1895244"><ele></ele><time>2022-6-1T16:8:30Z</time></trkpt>
<trkpt lat="48.9505522" lon="3.1892663"><ele></ele><time>2022-6-1T16:8:33Z</time></trkpt>
<trkpt lat="48.9506154" lon="3.1889786"><ele></ele><time>2022-6-1T16:8:36Z</time></trkpt>
<trkpt lat="48.9506570" lon="3.1886934"><ele></ele><time>2022-6-1T16:8:39Z</time></trkpt>
<trkpt lat="48.9506966" lon="3.1884199"><ele></ele><time>2022-6-1T16:8:42Z</time></trkpt>
<trkpt lat="48.9507642" lon="3.1880400"><ele></ele><time>2022-6-1T16:8:45Z</time></trkpt>
<trkpt lat="48.9508907" lon="3.1877972"><ele></ele><time>2022-6-1T16:8:48Z</time></trkpt>
<trkpt lat="48.9509913" lon="3.1875536"><ele></ele><time>2022-6-1T16:8:51Z</time></trkpt>
<trkpt lat="48.9510897" lon="3.1873140"><ele></ele><time>2022-6-1T16:8:54Z</time></trkpt>
<trkpt lat="48.9511967" lon="3.1870651"><ele></ele><time>2022-6-1T16:8:57Z</time></trkpt>
<trkpt lat="48.9513256" lon="3.1867903"><ele></ele><time>2022-6-1T16:9:0Z</time></trkpt>
<trkpt lat="48.9514142" lon="3.1865439"><ele></ele><time>2022-6-1T16:9:3Z</time></trkpt>
<trkpt lat="48.9514794" lon="3.1862306"><ele></ele><time>2022-6-1T16:9:6Z</time></trkpt>
<trkpt lat="48.9515139" lon="3.1859195"><ele></ele><time>2022-6-1T16:9:9Z</time></trkpt>
<trkpt lat="48.9515010" lon="3.1856167"><ele></ele><time>2022-6-1T16:9:12Z</time></trkpt>
<trkpt lat="48.9515829" lon="3.1853580"><ele></ele><time>2022-6-1T16:9:15Z</time></trkpt>
<trkpt lat="48.9516895" lon="3.1851358"><ele></ele><time>2022-6-1T16:9:18Z</time></trkpt>
<trkpt lat="48.9517856" lon="3.1848717"><ele></ele><time>2022-6-1T16:9:21Z</time></trkpt>
<trkpt lat="48.9517369" lon="3.1845937"><ele></ele><time>2022-6-1T16:9:24Z</time></trkpt>
<trkpt lat="48.9516486" lon="3.1843527"><ele></ele><time>2022-6-1T16:9:27Z</time></trkpt>
<trkpt lat="48.9515581" lon="3.1840950"><ele></ele><time>2022-6-1T16:9:30Z</time></trkpt>
<trkpt lat="48.9514301" lon="3.1838566"><ele></ele><time>2022-6-1T16:9:33Z</time></trkpt>
<trkpt lat="48.9513110" lon="3.1836437"><ele></ele><time>2022-6-1T16:9:36Z</time></trkpt>
<trkpt lat="48.9512120" lon="3.1833895"><ele></ele><time>2022-6-1T16:9:39Z</time></trkpt>
<trkpt lat="48.9511407" lon="3.1831284"><ele></ele><time>2022-6-1T16:9:42Z</time></trkpt>
<trkpt lat="48.9510110" lon="3.1829021"><ele></ele><time>2022-6-1T16:9:45Z</time></trkpt>
<trkpt lat="48.9508896" lon="3.1826902"><ele></ele><time>2022-6-1T16:9:48Z</time></trkpt>
<trkpt lat="48.9507778" lon="3.1824351"><ele></ele><time>2022-6-1T16:9:51Z</time></trkpt>
<trkpt lat="48.9506844" lon="3.1821875"><ele></ele><time>2022-6-1T16:9:54Z</time></trkpt>
<trkpt lat="48.9505747" lon="3.1819522"><ele></ele><time>2022-6-1T16:9:57Z</time></trkpt>
<trkpt lat="48.9504588" lon="3.1817083"><ele></ele><time>2022-6-1T16:10:0Z</time></trkpt>
<trkpt lat="48.9503495" lon="3.1814551"><ele></ele><time>2022-6-1T16:10:3Z</time></trkpt>
<trkpt lat="48.9502600" lon="3.1812127"><ele></ele><time>2022-6-1T16:10:6Z</time></trkpt>
<trkpt lat="48.9501516" lon="3.1809787"><ele></ele><time>2022-6-1T16:10:9Z</time></trkpt>
<trkpt lat="48.9500293" lon="3.1807269"><ele></ele><time>2022-6-1T16:10:12Z</time></trkpt>
<trkpt lat="48.9499272" lon="3.1804935"><ele></ele><time>2022-6-1T16:10:15Z</time></trkpt>
<trkpt lat="48.9498423" lon="3.1802361"><ele></ele><time>2022-6-1T16:10:18Z</time></trkpt>
<trkpt lat="48.9498911" lon="3.1799491"><ele></ele><time>2022-6-1T16:10:21Z</time></trkpt>
<trkpt lat="48.9499994" lon="3.1797066"><ele></ele><time>2022-6-1T16:10:24Z</time></trkpt>
<trkpt lat="48.9501305" lon="3.1795057"><ele></ele><time>2022-6-1T16:10:27Z</time></trkpt>
<trkpt lat="48.9502701" lon="3.1792976"><ele></ele><time>2022-6-1T16:10:30Z</time></trkpt>
<trkpt lat="48.9503678" lon="3.1790576"><ele></ele><time>2022-6-1T16:10:33Z</time></trkpt>
<trkpt lat="48.9504756" lon="3.1788245"><ele></ele><time>2022-6-1T16:10:36Z</time></trkpt>
<trkpt lat="48.9505871" lon="3.1786029"><ele></ele><time>2022-6-1T16:10:39Z</time></trkpt>
<trkpt lat="48.9506994" lon="3.1783822"><ele></ele><time>2022-6-1T16:10:42Z</time></trkpt>
<trkpt lat="48.9508110" lon="3.1781391"><ele></ele><time>2022-6-1T16:10:45Z</time></trkpt>
<trkpt lat="48.9509261" lon="3.1779194"><ele></ele><time>2022-6-1T16:10:48Z</time></trkpt>
<trkpt lat="48.9508093" lon="3.1781706"><ele></ele><time>2022-6-1T16:10:51Z</time></trkpt>
<trkpt lat="48.9506984" lon="3.1783949"><ele></ele><time>2022-6-1T16:10:54Z</time></trkpt>
<trkpt lat="48.9508145" lon="3.1781632"><ele></ele><time>2022-6-1T16:10:57Z</time></trkpt>
<trkpt lat="48.9509230" lon="3.1779264"><ele></ele><time>2022-6-1T16:11:0Z</time></trkpt>
<trkpt lat="48.9511127" lon="3.1779971"><ele></ele><time>2022-6-1T16:11:3Z</time></trkpt>
<trkpt lat="48.9512316" lon="3.1782577"><ele></ele><time>2022-6-1T16:11:6Z</time></trkpt>
<trkpt lat="48.9513474" lon="3.1785026"><ele></ele><time>2022-6-1T16:11:9Z</time></trkpt>
<trkpt lat="48.9514548" lon="3.1787505"><ele></ele><time>2022-6-1T16:11:12Z</time></trkpt>
<trkpt lat="48.9515644" lon="3.1789856"><ele></ele><time>2022-6-1T16:11:15Z</time></trkpt>
<trkpt lat="48.9516666" lon="3.1792211"><ele></ele><time>2022-6-1T16:11:18Z</time></trkpt>
<trkpt lat="48.9517732" lon="3.1794556"><ele></ele><time>2022-6-1T16:11:21Z</time></trkpt>
<trkpt lat="48.9518958" lon="3.1797037"><ele></ele><time>2022-6-1T16:11:24Z</time></trkpt>
<trkpt lat="48.9520023" lon="3.1799638"><ele></ele><time>2022-6-1T16:11:27Z</time></trkpt>
<trkpt lat="48.9521117" lon="3.1801957"><ele></ele><time>2022-6-1T16:11:30Z</time></trkpt>
<trkpt lat="48.9522289" lon="3.1804474"><ele></ele><time>2022-6-1T16:11:33Z</time></trkpt>
<trkpt lat="48.9523376" lon="3.1807008"><ele></ele><time>2022-6-1T16:11:36Z</time></trkpt>
<trkpt lat="48.9524455" lon="3.1809624"><ele></ele><time>2022-6-1T16:11:39Z</time></trkpt>
<trkpt lat="48.9525732" lon="3.1812087"><ele></ele><time>2022-6-1T16:11:42Z</time></trkpt>
<trkpt lat="48.9526884" lon="3.1814616"><ele></ele><time>2022-6-1T16:11:45Z</time></trkpt>
<trkpt lat="48.9528125" lon="3.1816904"><ele></ele><time>2022-6-1T16:11:48Z</time></trkpt>
<trkpt lat="48.9530169" lon="3.1821394"><ele></ele><time>2022-6-1T16:11:51Z</time></trkpt>
<trkpt lat="48.9531767" lon="3.1822909"><ele></ele><time>2022-6-1T16:11:54Z</time></trkpt>
<trkpt lat="48.9533604" lon="3.1823414"><ele></ele><time>2022-6-1T16:11:57Z</time></trkpt>
<trkpt lat="48.9535344" lon="3.1822435"><ele></ele><time>2022-6-1T16:12:0Z</time></trkpt>
<trkpt lat="48.9537000" lon="3.1821216"><ele></ele><time>2022-6-1T16:12:3Z</time></trkpt>
<trkpt lat="48.9538710" lon="3.1820186"><ele></ele><time>2022-6-1T16:12:6Z</time></trkpt>
<trkpt lat="48.9540622" lon="3.1818627"><ele></ele><time>2022-6-1T16:12:9Z</time></trkpt>
<trkpt lat="48.9542400" lon="3.1816562"><ele></ele><time>2022-6-1T16:12:12Z</time></trkpt>
<trkpt lat="48.9543711" lon="3.1814217"><ele></ele><time>2022-6-1T16:12:15Z</time></trkpt>
<trkpt lat="48.9544942" lon="3.1812077"><ele></ele><time>2022-6-1T16:12:18Z</time></trkpt>
<trkpt lat="48.9546383" lon="3.1810045"><ele></ele><time>2022-6-1T16:12:21Z</time></trkpt>
<trkpt lat="48.9548148" lon="3.1808948"><ele></ele><time>2022-6-1T16:12:24Z</time></trkpt>
<trkpt lat="48.9550038" lon="3.1808960"><ele></ele><time>2022-6-1T16:12:27Z</time></trkpt>
<trkpt lat="48.9551941" lon="3.1808564"><ele></ele><time>2022-6-1T16:12:30Z</time></trkpt>
<trkpt lat="48.9553451" lon="3.1806945"><ele></ele><time>2022-6-1T16:12:33Z</time></trkpt>
<trkpt lat="48.9555200" lon="3.1805689"><ele></ele><time>2022-6-1T16:12:36Z</time></trkpt>
<trkpt lat="48.9556880" lon="3.1804534"><ele></ele><time>2022-6-1T16:12:39Z</time></trkpt>
<trkpt lat="48.9557484" lon="3.1801919"><ele></ele><time>2022-6-1T16:12:42Z</time></trkpt>
<trkpt lat="48.9557864" lon="3.1799049"><ele></ele><time>2022-6-1T16:12:45Z</time></trkpt>
<trkpt lat="48.9558041" lon="3.1796210"><ele></ele><time>2022-6-1T16:12:48Z</time></trkpt>
<trkpt lat="48.9558093" lon="3.1793095"><ele></ele><time>2022-6-1T16:12:51Z</time></trkpt>
<trkpt lat="48.9558152" lon="3.1790145"><ele></ele><time>2022-6-1T16:12:54Z</time></trkpt>
<trkpt lat="48.9558623" lon="3.1787227"><ele></ele><time>2022-6-1T16:12:57Z</time></trkpt>
<trkpt lat="48.9559925" lon="3.1784936"><ele></ele><time>2022-6-1T16:13:0Z</time></trkpt>
<trkpt lat="48.9561459" lon="3.1783445"><ele></ele><time>2022-6-1T16:13:3Z</time></trkpt>
<trkpt lat="48.9563281" lon="3.1782440"><ele></ele><time>2022-6-1T16:13:6Z</time></trkpt>
<trkpt lat="48.9564910" lon="3.1780945"><ele></ele><time>2022-6-1T16:13:9Z</time></trkpt>
<trkpt lat="48.9566664" lon="3.1779619"><ele></ele><time>2022-6-1T16:13:12Z</time></trkpt>
<trkpt lat="48.9568683" lon="3.1779581"><ele></ele><time>2022-6-1T16:13:15Z</time></trkpt>
<trkpt lat="48.9570526" lon="3.1779998"><ele></ele><time>2022-6-1T16:13:18Z</time></trkpt>
<trkpt lat="48.9572349" lon="3.1780195"><ele></ele><time>2022-6-1T16:13:21Z</time></trkpt>
<trkpt lat="48.9574286" lon="3.1779732"><ele></ele><time>2022-6-1T16:13:24Z</time></trkpt>
<trkpt lat="48.9576355" lon="3.1778406"><ele></ele><time>2022-6-1T16:13:27Z</time></trkpt>
<trkpt lat="48.9578043" lon="3.1776729"><ele></ele><time>2022-6-1T16:13:30Z</time></trkpt>
<trkpt lat="48.9579643" lon="3.1774939"><ele></ele><time>2022-6-1T16:13:33Z</time></trkpt>
<trkpt lat="48.9581175" lon="3.1772784"><ele></ele><time>2022-6-1T16:13:36Z</time></trkpt>
<trkpt lat="48.9583122" lon="3.1771729"><ele></ele><time>2022-6-1T16:13:39Z</time></trkpt>
<trkpt lat="48.9583656" lon="3.1768976"><ele></ele><time>2022-6-1T16:13:42Z</time></trkpt>
<trkpt lat="48.9583320" lon="3.1765982"><ele></ele><time>2022-6-1T16:13:45Z</time></trkpt>
<trkpt lat="48.9583262" lon="3.1763100"><ele></ele><time>2022-6-1T16:13:48Z</time></trkpt>
<trkpt lat="48.9584077" lon="3.1760569"><ele></ele><time>2022-6-1T16:13:51Z</time></trkpt>
<trkpt lat="48.9584733" lon="3.1757864"><ele></ele><time>2022-6-1T16:13:54Z</time></trkpt>
<trkpt lat="48.9585485" lon="3.1755007"><ele></ele><time>2022-6-1T16:13:57Z</time></trkpt>
<trkpt lat="48.9586168" lon="3.1752321"><ele></ele><time>2022-6-1T16:14:0Z</time></trkpt>
<trkpt lat="48.9586870" lon="3.1749679"><ele></ele><time>2022-6-1T16:14:3Z</time></trkpt>
<trkpt lat="48.9587305" lon="3.1746614"><ele></ele><time>2022-6-1T16:14:6Z</time></trkpt>
<trkpt lat="48.9588285" lon="3.1743953"><ele></ele><time>2022-6-1T16:14:9Z</time></trkpt>
<trkpt lat="48.9588895" lon="3.1741144"><ele></ele><time>2022-6-1T16:14:12Z</time></trkpt>
<trkpt lat="48.9589635" lon="3.1738405"><ele></ele><time>2022-6-1T16:14:15Z</time></trkpt>
<trkpt lat="48.9590402" lon="3.1735698"><ele></ele><time>2022-6-1T16:14:18Z</time></trkpt>
<trkpt lat="48.9590023" lon="3.1732669"><ele></ele><time>2022-6-1T16:14:21Z</time></trkpt>
<trkpt lat="48.9588630" lon="3.1730917"><ele></ele><time>2022-6-1T16:14:24Z</time></trkpt>
<trkpt lat="48.9586901" lon="3.1729654"><ele></ele><time>2022-6-1T16:14:27Z</time></trkpt>
<trkpt lat="48.9585148" lon="3.1728104"><ele></ele><time>2022-6-1T16:14:30Z</time></trkpt>
<trkpt lat="48.9583560" lon="3.1726372"><ele></ele><time>2022-6-1T16:14:33Z</time></trkpt>
<trkpt lat="48.9581914" lon="3.1724987"><ele></ele><time>2022-6-1T16:14:36Z</time></trkpt>
<trkpt lat="48.9580026" lon="3.1723738"><ele></ele><time>2022-6-1T16:14:39Z</time></trkpt>
<trkpt lat="48.9578092" lon="3.1722994"><ele></ele><time>2022-6-1T16:14:42Z</time></trkpt>
<trkpt lat="48.9576316" lon="3.1721427"><ele></ele><time>2022-6-1T16:14:45Z</time></trkpt>
<trkpt lat="48.9574763" lon="3.1719972"><ele></ele><time>2022-6-1T16:14:48Z</time></trkpt>
<trkpt lat="48.9572922" lon="3.1719176"><ele></ele><time>2022-6-1T16:14:51Z</time></trkpt>
<trkpt lat="48.9571302" lon="3.1717546"><ele></ele><time>2022-6-1T16:14:54Z</time></trkpt>
<trkpt lat="48.9569470" lon="3.1716552"><ele></ele><time>2022-6-1T16:14:57Z</time></trkpt>
<trkpt lat="48.9567613" lon="3.1715130"><ele></ele><time>2022-6-1T16:15:0Z</time></trkpt>
<trkpt lat="48.9565859" lon="3.1714512"><ele></ele><time>2022-6-1T16:15:3Z</time></trkpt>
<trkpt lat="48.9562143" lon="3.1712952"><ele></ele><time>2022-6-1T16:15:6Z</time></trkpt>
<trkpt lat="48.9560329" lon="3.1711669"><ele></ele><time>2022-6-1T16:15:9Z</time></trkpt>
<trkpt lat="48.9558433" lon="3.1711357"><ele></ele><time>2022-6-1T16:15:12Z</time></trkpt>
<trkpt lat="48.9556609" lon="3.1710940"><ele></ele><time>2022-6-1T16:15:15Z</time></trkpt>
<trkpt lat="48.9554665" lon="3.1710096"><ele></ele><time>2022-6-1T16:15:18Z</time></trkpt>
<trkpt lat="48.9552715" lon="3.1709815"><ele></ele><time>2022-6-1T16:15:21Z</time></trkpt>
<trkpt lat="48.9550915" lon="3.1709577"><ele></ele><time>2022-6-1T16:15:24Z</time></trkpt>
<trkpt lat="48.9549077" lon="3.1709012"><ele></ele><time>2022-6-1T16:15:27Z</time></trkpt>
<trkpt lat="48.9547385" lon="3.1707993"><ele></ele><time>2022-6-1T16:15:30Z</time></trkpt>
<trkpt lat="48.9545803" lon="3.1706531"><ele></ele><time>2022-6-1T16:15:33Z</time></trkpt>
<trkpt lat="48.9544328" lon="3.1704593"><ele></ele><time>2022-6-1T16:15:36Z</time></trkpt>
<trkpt lat="48.9543913" lon="3.1701855"><ele></ele><time>2022-6-1T16:15:39Z</time></trkpt>
<trkpt lat="48.9543312" lon="3.1699258"><ele></ele><time>2022-6-1T16:15:42Z</time></trkpt>
<trkpt lat="48.9543742" lon="3.1696579"><ele></ele><time>2022-6-1T16:15:45Z</time></trkpt>
<trkpt lat="48.9544790" lon="3.1693954"><ele></ele><time>2022-6-1T16:15:48Z</time></trkpt>
<trkpt lat="48.9545820" lon="3.1691381"><ele></ele><time>2022-6-1T16:15:51Z</time></trkpt>
<trkpt lat="48.9546280" lon="3.1688499"><ele></ele><time>2022-6-1T16:15:54Z</time></trkpt>
<trkpt lat="48.9546199" lon="3.1685670"><ele></ele><time>2022-6-1T16:15:57Z</time></trkpt>
<trkpt lat="48.9545810" lon="3.1682810"><ele></ele><time>2022-6-1T16:16:0Z</time></trkpt>
<trkpt lat="48.9544956" lon="3.1679750"><ele></ele><time>2022-6-1T16:16:3Z</time></trkpt>
<trkpt lat="48.9543595" lon="3.1677387"><ele></ele><time>2022-6-1T16:16:6Z</time></trkpt>
<trkpt lat="48.9542636" lon="3.1675060"><ele></ele><time>2022-6-1T16:16:9Z</time></trkpt>
<trkpt lat="48.9544432" lon="3.1675241"><ele></ele><time>2022-6-1T16:16:12Z</time></trkpt>
<trkpt lat="48.9541336" lon="3.1671353"><ele></ele><time>2022-6-1T16:16:15Z</time></trkpt>
<trkpt lat="48.9540461" lon="3.1668542"><ele></ele><time>2022-6-1T16:16:18Z</time></trkpt>
<trkpt lat="48.9539620" lon="3.1666015"><ele></ele><time>2022-6-1T16:16:21Z</time></trkpt>
<trkpt lat="48.9539340" lon="3.1662812"><ele></ele><time>2022-6-1T16:16:24Z</time></trkpt>
<trkpt lat="48.9538718" lon="3.1659975"><ele></ele><time>2022-6-1T16:16:27Z</time></trkpt>
<trkpt lat="48.9538123" lon="3.1657147"><ele></ele><time>2022-6-1T16:16:30Z</time></trkpt>
<trkpt lat="48.9537199" lon="3.1654207"><ele></ele><time>2022-6-1T16:16:33Z</time></trkpt>
<trkpt lat="48.9536133" lon="3.1651754"><ele></ele><time>2022-6-1T16:16:36Z</time></trkpt>
<trkpt lat="48.9535139" lon="3.1649459"><ele></ele><time>2022-6-1T16:16:39Z</time></trkpt>
<trkpt lat="48.9533727" lon="3.1647015"><ele></ele><time>2022-6-1T16:16:42Z</time></trkpt>
<trkpt lat="48.9532347" lon="3.1644914"><ele></ele><time>2022-6-1T16:16:45Z</time></trkpt>
<trkpt lat="48.9531863" lon="3.1642169"><ele></ele><time>2022-6-1T16:16:48Z</time></trkpt>
<trkpt lat="48.9531123" lon="3.1639564"><ele></ele><time>2022-6-1T16:16:51Z</time></trkpt>
<trkpt lat="48.9530088" lon="3.1637314"><ele></ele><time>2022-6-1T16:16:54Z</time></trkpt>
<trkpt lat="48.9528804" lon="3.1634117"><ele></ele><time>2022-6-1T16:16:57Z</time></trkpt>
<trkpt lat="48.9528120" lon="3.1631237"><ele></ele><time>2022-6-1T16:17:0Z</time></trkpt>
<trkpt lat="48.9527086" lon="3.1628960"><ele></ele><time>2022-6-1T16:17:3Z</time></trkpt>
<trkpt lat="48.9526266" lon="3.1626434"><ele></ele><time>2022-6-1T16:17:6Z</time></trkpt>
<trkpt lat="48.9525357" lon="3.1623531"><ele></ele><time>2022-6-1T16:17:9Z</time></trkpt>
<trkpt lat="48.9524434" lon="3.1621153"><ele></ele><time>2022-6-1T16:17:12Z</time></trkpt>
<trkpt lat="48.9523767" lon="3.1618464"><ele></ele><time>2022-6-1T16:17:15Z</time></trkpt>
<trkpt lat="48.9522176" lon="3.1616174"><ele></ele><time>2022-6-1T16:17:18Z</time></trkpt>
<trkpt lat="48.9520857" lon="3.1614011"><ele></ele><time>2022-6-1T16:17:21Z</time></trkpt>
<trkpt lat="48.9519102" lon="3.1611630"><ele></ele><time>2022-6-1T16:17:24Z</time></trkpt>
<trkpt lat="48.9517661" lon="3.1609323"><ele></ele><time>2022-6-1T16:17:27Z</time></trkpt>
<trkpt lat="48.9516492" lon="3.1607222"><ele></ele><time>2022-6-1T16:17:30Z</time></trkpt>
<trkpt lat="48.9515109" lon="3.1605224"><ele></ele><time>2022-6-1T16:17:33Z</time></trkpt>
<trkpt lat="48.9513934" lon="3.1602809"><ele></ele><time>2022-6-1T16:17:36Z</time></trkpt>
<trkpt lat="48.9512868" lon="3.1600459"><ele></ele><time>2022-6-1T16:17:39Z</time></trkpt>
<trkpt lat="48.9511595" lon="3.1597792"><ele></ele><time>2022-6-1T16:17:42Z</time></trkpt>
<trkpt lat="48.9510197" lon="3.1595683"><ele></ele><time>2022-6-1T16:17:45Z</time></trkpt>
<trkpt lat="48.9510163" lon="3.1592929"><ele></ele><time>2022-6-1T16:17:48Z</time></trkpt>
<trkpt lat="48.9511706" lon="3.1591213"><ele></ele><time>2022-6-1T16:17:51Z</time></trkpt>
<trkpt lat="48.9513386" lon="3.1589999"><ele></ele><time>2022-6-1T16:17:54Z</time></trkpt>
<trkpt lat="48.9515148" lon="3.1588571"><ele></ele><time>2022-6-1T16:17:57Z</time></trkpt>
<trkpt lat="48.9516885" lon="3.1587487"><ele></ele><time>2022-6-1T16:18:0Z</time></trkpt>
<trkpt lat="48.9518830" lon="3.1587073"><ele></ele><time>2022-6-1T16:18:3Z</time></trkpt>
<trkpt lat="48.9520669" lon="3.1587135"><ele></ele><time>2022-6-1T16:18:6Z</time></trkpt>
<trkpt lat="48.9522649" lon="3.1587524"><ele></ele><time>2022-6-1T16:18:9Z</time></trkpt>
<trkpt lat="48.9524480" lon="3.1587266"><ele></ele><time>2022-6-1T16:18:12Z</time></trkpt>
<trkpt lat="48.9526073" lon="3.1584972"><ele></ele><time>2022-6-1T16:18:15Z</time></trkpt>
<trkpt lat="48.9527716" lon="3.1582454"><ele></ele><time>2022-6-1T16:18:18Z</time></trkpt>
<trkpt lat="48.9528762" lon="3.1579709"><ele></ele><time>2022-6-1T16:18:21Z</time></trkpt>
<trkpt lat="48.9529772" lon="3.1575417"><ele></ele><time>2022-6-1T16:18:24Z</time></trkpt>
<trkpt lat="48.9530349" lon="3.1572763"><ele></ele><time>2022-6-1T16:18:27Z</time></trkpt>
<trkpt lat="48.9531115" lon="3.1569413"><ele></ele><time>2022-6-1T16:18:30Z</time></trkpt>
<trkpt lat="48.9531827" lon="3.1566703"><ele></ele><time>2022-6-1T16:18:33Z</time></trkpt>
<trkpt lat="48.9532271" lon="3.1563775"><ele></ele><time>2022-6-1T16:18:36Z</time></trkpt>
<trkpt lat="48.9532681" lon="3.1560848"><ele></ele><time>2022-6-1T16:18:39Z</time></trkpt>
<trkpt lat="48.9533268" lon="3.1557837"><ele></ele><time>2022-6-1T16:18:42Z</time></trkpt>
<trkpt lat="48.9534062" lon="3.1555148"><ele></ele><time>2022-6-1T16:18:45Z</time></trkpt>
<trkpt lat="48.9535374" lon="3.1552858"><ele></ele><time>2022-6-1T16:18:48Z</time></trkpt>
<trkpt lat="48.9536859" lon="3.1550661"><ele></ele><time>2022-6-1T16:18:51Z</time></trkpt>
<trkpt lat="48.9538560" lon="3.1547795"><ele></ele><time>2022-6-1T16:18:54Z</time></trkpt>
<trkpt lat="48.9539875" lon="3.1545268"><ele></ele><time>2022-6-1T16:18:57Z</time></trkpt>
<trkpt lat="48.9541052" lon="3.1542921"><ele></ele><time>2022-6-1T16:19:0Z</time></trkpt>
<trkpt lat="48.9542729" lon="3.1541052"><ele></ele><time>2022-6-1T16:19:3Z</time></trkpt>
<trkpt lat="48.9544138" lon="3.1538869"><ele></ele><time>2022-6-1T16:19:6Z</time></trkpt>
<trkpt lat="48.9545262" lon="3.1536635"><ele></ele><time>2022-6-1T16:19:9Z</time></trkpt>
<trkpt lat="48.9546597" lon="3.1534072"><ele></ele><time>2022-6-1T16:19:12Z</time></trkpt>
<trkpt lat="48.9548386" lon="3.1532444"><ele></ele><time>2022-6-1T16:19:15Z</time></trkpt>
<trkpt lat="48.9549945" lon="3.1529865"><ele></ele><time>2022-6-1T16:19:18Z</time></trkpt>
<trkpt lat="48.9551857" lon="3.1527880"><ele></ele><time>2022-6-1T16:19:21Z</time></trkpt>
<trkpt lat="48.9553543" lon="3.1526335"><ele></ele><time>2022-6-1T16:19:24Z</time></trkpt>
<trkpt lat="48.9555326" lon="3.1525278"><ele></ele><time>2022-6-1T16:19:27Z</time></trkpt>
<trkpt lat="48.9557448" lon="3.1524443"><ele></ele><time>2022-6-1T16:19:30Z</time></trkpt>
<trkpt lat="48.9559196" lon="3.1523401"><ele></ele><time>2022-6-1T16:19:33Z</time></trkpt>
<trkpt lat="48.9561257" lon="3.1522144"><ele></ele><time>2022-6-1T16:19:36Z</time></trkpt>
<trkpt lat="48.9562991" lon="3.1520903"><ele></ele><time>2022-6-1T16:19:39Z</time></trkpt>
<trkpt lat="48.9564556" lon="3.1519381"><ele></ele><time>2022-6-1T16:19:42Z</time></trkpt>
<trkpt lat="48.9566401" lon="3.1519900"><ele></ele><time>2022-6-1T16:19:45Z</time></trkpt>
<trkpt lat="48.9568458" lon="3.1520081"><ele></ele><time>2022-6-1T16:19:48Z</time></trkpt>
<trkpt lat="48.9570234" lon="3.1521072"><ele></ele><time>2022-6-1T16:19:51Z</time></trkpt>
<trkpt lat="48.9571856" lon="3.1519744"><ele></ele><time>2022-6-1T16:19:54Z</time></trkpt>
<trkpt lat="48.9573394" lon="3.1517957"><ele></ele><time>2022-6-1T16:19:57Z</time></trkpt>
<trkpt lat="48.9574717" lon="3.1515311"><ele></ele><time>2022-6-1T16:20:0Z</time></trkpt>
<trkpt lat="48.9576308" lon="3.1513781"><ele></ele><time>2022-6-1T16:20:3Z</time></trkpt>
<trkpt lat="48.9578126" lon="3.1512812"><ele></ele><time>2022-6-1T16:20:6Z</time></trkpt>
<trkpt lat="48.9580210" lon="3.1512570"><ele></ele><time>2022-6-1T16:20:9Z</time></trkpt>
<trkpt lat="48.9582049" lon="3.1512332"><ele></ele><time>2022-6-1T16:20:12Z</time></trkpt>
<trkpt lat="48.9584219" lon="3.1511962"><ele></ele><time>2022-6-1T16:20:15Z</time></trkpt>
<trkpt lat="48.9587045" lon="3.1510038"><ele></ele><time>2022-6-1T16:20:18Z</time></trkpt>
<trkpt lat="48.9588733" lon="3.1508982"><ele></ele><time>2022-6-1T16:20:21Z</time></trkpt>
<trkpt lat="48.9590410" lon="3.1506711"><ele></ele><time>2022-6-1T16:20:24Z</time></trkpt>
<trkpt lat="48.9592111" lon="3.1504926"><ele></ele><time>2022-6-1T16:20:27Z</time></trkpt>
<trkpt lat="48.9593730" lon="3.1503436"><ele></ele><time>2022-6-1T16:20:30Z</time></trkpt>
<trkpt lat="48.9595407" lon="3.1501619"><ele></ele><time>2022-6-1T16:20:33Z</time></trkpt>
<trkpt lat="48.9596864" lon="3.1499811"><ele></ele><time>2022-6-1T16:20:36Z</time></trkpt>
<trkpt lat="48.9596622" lon="3.1497006"><ele></ele><time>2022-6-1T16:20:39Z</time></trkpt>
<trkpt lat="48.9595448" lon="3.1494823"><ele></ele><time>2022-6-1T16:20:42Z</time></trkpt>
<trkpt lat="48.9593921" lon="3.1492457"><ele></ele><time>2022-6-1T16:20:45Z</time></trkpt>
<trkpt lat="48.9592488" lon="3.1490384"><ele></ele><time>2022-6-1T16:20:48Z</time></trkpt>
<trkpt lat="48.9591219" lon="3.1488323"><ele></ele><time>2022-6-1T16:20:51Z</time></trkpt>
<trkpt lat="48.9589919" lon="3.1486339"><ele></ele><time>2022-6-1T16:20:54Z</time></trkpt>
<trkpt lat="48.9589159" lon="3.1483796"><ele></ele><time>2022-6-1T16:20:57Z</time></trkpt>
<trkpt lat="48.9590244" lon="3.1481330"><ele></ele><time>2022-6-1T16:21:0Z</time></trkpt>
<trkpt lat="48.9591753" lon="3.1479245"><ele></ele><time>2022-6-1T16:21:3Z</time></trkpt>
<trkpt lat="48.9593637" lon="3.1477566"><ele></ele><time>2022-6-1T16:21:6Z</time></trkpt>
<trkpt lat="48.9595423" lon="3.1475700"><ele></ele><time>2022-6-1T16:21:9Z</time></trkpt>
<trkpt lat="48.9596520" lon="3.1473388"><ele></ele><time>2022-6-1T16:21:12Z</time></trkpt>
<trkpt lat="48.9595302" lon="3.1470976"><ele></ele><time>2022-6-1T16:21:15Z</time></trkpt>
<trkpt lat="48.9593861" lon="3.1468400"><ele></ele><time>2022-6-1T16:21:18Z</time></trkpt>
<trkpt lat="48.9592523" lon="3.1466244"><ele></ele><time>2022-6-1T16:21:21Z</time></trkpt>
<trkpt lat="48.9591980" lon="3.1463283"><ele></ele><time>2022-6-1T16:21:24Z</time></trkpt>
<trkpt lat="48.9593076" lon="3.1460777"><ele></ele><time>2022-6-1T16:21:27Z</time></trkpt>
<trkpt lat="48.9593050" lon="3.1458020"><ele></ele><time>2022-6-1T16:21:30Z</time></trkpt>
<trkpt lat="48.9591772" lon="3.1455953"><ele></ele><time>2022-6-1T16:21:33Z</time></trkpt>
<trkpt lat="48.9590330" lon="3.1453903"><ele></ele><time>2022-6-1T16:21:36Z</time></trkpt>
<trkpt lat="48.9588997" lon="3.1451892"><ele></ele><time>2022-6-1T16:21:39Z</time></trkpt>
<trkpt lat="48.9588413" lon="3.1449262"><ele></ele><time>2022-6-1T16:21:42Z</time></trkpt>
<trkpt lat="48.9589296" lon="3.1446577"><ele></ele><time>2022-6-1T16:21:45Z</time></trkpt>
<trkpt lat="48.9590321" lon="3.1444057"><ele></ele><time>2022-6-1T16:21:48Z</time></trkpt>
<trkpt lat="48.9591482" lon="3.1441546"><ele></ele><time>2022-6-1T16:21:51Z</time></trkpt>
<trkpt lat="48.9590990" lon="3.1438738"><ele></ele><time>2022-6-1T16:21:54Z</time></trkpt>
<trkpt lat="48.9589574" lon="3.1436770"><ele></ele><time>2022-6-1T16:21:57Z</time></trkpt>
<trkpt lat="48.9588778" lon="3.1434062"><ele></ele><time>2022-6-1T16:22:0Z</time></trkpt>
<trkpt lat="48.9586918" lon="3.1433994"><ele></ele><time>2022-6-1T16:22:3Z</time></trkpt>
<trkpt lat="48.9585312" lon="3.1432384"><ele></ele><time>2022-6-1T16:22:6Z</time></trkpt>
<trkpt lat="48.9585028" lon="3.1429539"><ele></ele><time>2022-6-1T16:22:9Z</time></trkpt>
<trkpt lat="48.9585950" lon="3.1426946"><ele></ele><time>2022-6-1T16:22:12Z</time></trkpt>
<trkpt lat="48.9586267" lon="3.1424185"><ele></ele><time>2022-6-1T16:22:15Z</time></trkpt>
<trkpt lat="48.9587266" lon="3.1421768"><ele></ele><time>2022-6-1T16:22:18Z</time></trkpt>
<trkpt lat="48.9588518" lon="3.1419428"><ele></ele><time>2022-6-1T16:22:21Z</time></trkpt>
<trkpt lat="48.9589541" lon="3.1416639"><ele></ele><time>2022-6-1T16:22:24Z</time></trkpt>
<trkpt lat="48.9590605" lon="3.1413964"><ele></ele><time>2022-6-1T16:22:27Z</time></trkpt>
<trkpt lat="48.9589197" lon="3.1411718"><ele></ele><time>2022-6-1T16:22:30Z</time></trkpt>
<trkpt lat="48.9587362" lon="3.1410758"><ele></ele><time>2022-6-1T16:22:33Z</time></trkpt>
<trkpt lat="48.9585351" lon="3.1409389"><ele></ele><time>2022-6-1T16:22:36Z</time></trkpt>
<trkpt lat="48.9583462" lon="3.1408244"><ele></ele><time>2022-6-1T16:22:39Z</time></trkpt>
<trkpt lat="48.9581177" lon="3.1406824"><ele></ele><time>2022-6-1T16:22:42Z</time></trkpt>
<trkpt lat="48.9579429" lon="3.1405270"><ele></ele><time>2022-6-1T16:22:45Z</time></trkpt>
<trkpt lat="48.9577347" lon="3.1404336"><ele></ele><time>2022-6-1T16:22:48Z</time></trkpt>
<trkpt lat="48.9575325" lon="3.1403026"><ele></ele><time>2022-6-1T16:22:51Z</time></trkpt>
<trkpt lat="48.9573440" lon="3.1402290"><ele></ele><time>2022-6-1T16:22:54Z</time></trkpt>
<trkpt lat="48.9571469" lon="3.1401430"><ele></ele><time>2022-6-1T16:22:57Z</time></trkpt>
<trkpt lat="48.9569749" lon="3.1400345"><ele></ele><time>2022-6-1T16:23:0Z</time></trkpt>
<trkpt lat="48.9567745" lon="3.1399345"><ele></ele><time>2022-6-1T16:23:3Z</time></trkpt>
<trkpt lat="48.9566021" lon="3.1398335"><ele></ele><time>2022-6-1T16:23:6Z</time></trkpt>
<trkpt lat="48.9564265" lon="3.1397366"><ele></ele><time>2022-6-1T16:23:9Z</time></trkpt>
<trkpt lat="48.9562503" lon="3.1396539"><ele></ele><time>2022-6-1T16:23:12Z</time></trkpt>
<trkpt lat="48.9560650" lon="3.1395199"><ele></ele><time>2022-6-1T16:23:15Z</time></trkpt>
<trkpt lat="48.9558731" lon="3.1394246"><ele></ele><time>2022-6-1T16:23:18Z</time></trkpt>
<trkpt lat="48.9556710" lon="3.1393136"><ele></ele><time>2022-6-1T16:23:21Z</time></trkpt>
<trkpt lat="48.9554760" lon="3.1392305"><ele></ele><time>2022-6-1T16:23:24Z</time></trkpt>
<trkpt lat="48.9552892" lon="3.1391474"><ele></ele><time>2022-6-1T16:23:27Z</time></trkpt>
<trkpt lat="48.9551042" lon="3.1390706"><ele></ele><time>2022-6-1T16:23:30Z</time></trkpt>
<trkpt lat="48.9549281" lon="3.1389191"><ele></ele><time>2022-6-1T16:23:33Z</time></trkpt>
<trkpt lat="48.9547421" lon="3.1387960"><ele></ele><time>2022-6-1T16:23:36Z</time></trkpt>
<trkpt lat="48.9545686" lon="3.1386333"><ele></ele><time>2022-6-1T16:23:39Z</time></trkpt>
<trkpt lat="48.9543585" lon="3.1385138"><ele></ele><time>2022-6-1T16:23:42Z</time></trkpt>
<trkpt lat="48.9541667" lon="3.1383998"><ele></ele><time>2022-6-1T16:23:45Z</time></trkpt>
<trkpt lat="48.9539770" lon="3.1382872"><ele></ele><time>2022-6-1T16:23:48Z</time></trkpt>
<trkpt lat="48.9537942" lon="3.1381904"><ele></ele><time>2022-6-1T16:23:51Z</time></trkpt>
<trkpt lat="48.9536359" lon="3.1380584"><ele></ele><time>2022-6-1T16:23:54Z</time></trkpt>
<trkpt lat="48.9534317" lon="3.1379040"><ele></ele><time>2022-6-1T16:23:57Z</time></trkpt>
<trkpt lat="48.9532529" lon="3.1377671"><ele></ele><time>2022-6-1T16:24:0Z</time></trkpt>
<trkpt lat="48.9530925" lon="3.1376115"><ele></ele><time>2022-6-1T16:24:3Z</time></trkpt>
<trkpt lat="48.9529302" lon="3.1374756"><ele></ele><time>2022-6-1T16:24:6Z</time></trkpt>
<trkpt lat="48.9527377" lon="3.1373264"><ele></ele><time>2022-6-1T16:24:9Z</time></trkpt>
<trkpt lat="48.9525537" lon="3.1371471"><ele></ele><time>2022-6-1T16:24:12Z</time></trkpt>
<trkpt lat="48.9523810" lon="3.1369845"><ele></ele><time>2022-6-1T16:24:15Z</time></trkpt>
<trkpt lat="48.9522062" lon="3.1368112"><ele></ele><time>2022-6-1T16:24:18Z</time></trkpt>
<trkpt lat="48.9520754" lon="3.1366043"><ele></ele><time>2022-6-1T16:24:21Z</time></trkpt>
<trkpt lat="48.9519227" lon="3.1363808"><ele></ele><time>2022-6-1T16:24:24Z</time></trkpt>
<trkpt lat="48.9517695" lon="3.1361472"><ele></ele><time>2022-6-1T16:24:27Z</time></trkpt>
<trkpt lat="48.9516419" lon="3.1359124"><ele></ele><time>2022-6-1T16:24:30Z</time></trkpt>
<trkpt lat="48.9515068" lon="3.1356747"><ele></ele><time>2022-6-1T16:24:33Z</time></trkpt>
<trkpt lat="48.9513443" lon="3.1355181"><ele></ele><time>2022-6-1T16:24:36Z</time></trkpt>
<trkpt lat="48.9512166" lon="3.1353091"><ele></ele><time>2022-6-1T16:24:39Z</time></trkpt>
<trkpt lat="48.9510721" lon="3.1351287"><ele></ele><time>2022-6-1T16:24:42Z</time></trkpt>
<trkpt lat="48.9509368" lon="3.1349336"><ele></ele><time>2022-6-1T16:24:45Z</time></trkpt>
<trkpt lat="48.9508208" lon="3.1346972"><ele></ele><time>2022-6-1T16:24:48Z</time></trkpt>
<trkpt lat="48.9506834" lon="3.1345014"><ele></ele><time>2022-6-1T16:24:51Z</time></trkpt>
<trkpt lat="48.9505354" lon="3.1342892"><ele></ele><time>2022-6-1T16:24:54Z</time></trkpt>
<trkpt lat="48.9503771" lon="3.1341233"><ele></ele><time>2022-6-1T16:24:57Z</time></trkpt>
<trkpt lat="48.9501917" lon="3.1339653"><ele></ele><time>2022-6-1T16:25:0Z</time></trkpt>
<trkpt lat="48.9500488" lon="3.1337959"><ele></ele><time>2022-6-1T16:25:3Z</time></trkpt>
<trkpt lat="48.9498955" lon="3.1336246"><ele></ele><time>2022-6-1T16:25:6Z</time></trkpt>
<trkpt lat="48.9497502" lon="3.1334482"><ele></ele><time>2022-6-1T16:25:9Z</time></trkpt>
<trkpt lat="48.9496017" lon="3.1332683"><ele></ele><time>2022-6-1T16:25:12Z</time></trkpt>
<trkpt lat="48.9494498" lon="3.1330717"><ele></ele><time>2022-6-1T16:25:15Z</time></trkpt>
<trkpt lat="48.9492817" lon="3.1328621"><ele></ele><time>2022-6-1T16:25:18Z</time></trkpt>
<trkpt lat="48.9491183" lon="3.1326666"><ele></ele><time>2022-6-1T16:25:21Z</time></trkpt>
<trkpt lat="48.9489431" lon="3.1324982"><ele></ele><time>2022-6-1T16:25:24Z</time></trkpt>
<trkpt lat="48.9487680" lon="3.1323579"><ele></ele><time>2022-6-1T16:25:27Z</time></trkpt>
<trkpt lat="48.9486219" lon="3.1321878"><ele></ele><time>2022-6-1T16:25:30Z</time></trkpt>
<trkpt lat="48.9487102" lon="3.1319443"><ele></ele><time>2022-6-1T16:25:33Z</time></trkpt>
<trkpt lat="48.9488362" lon="3.1317216"><ele></ele><time>2022-6-1T16:25:36Z</time></trkpt>
<trkpt lat="48.9489651" lon="3.1314821"><ele></ele><time>2022-6-1T16:25:39Z</time></trkpt>
<trkpt lat="48.9490660" lon="3.1312414"><ele></ele><time>2022-6-1T16:25:42Z</time></trkpt>
<trkpt lat="48.9491427" lon="3.1309805"><ele></ele><time>2022-6-1T16:25:45Z</time></trkpt>
<trkpt lat="48.9492806" lon="3.1307740"><ele></ele><time>2022-6-1T16:25:48Z</time></trkpt>
<trkpt lat="48.9493625" lon="3.1305103"><ele></ele><time>2022-6-1T16:25:51Z</time></trkpt>
<trkpt lat="48.9494807" lon="3.1302702"><ele></ele><time>2022-6-1T16:25:54Z</time></trkpt>
<trkpt lat="48.9495647" lon="3.1300207"><ele></ele><time>2022-6-1T16:25:57Z</time></trkpt>
<trkpt lat="48.9496525" lon="3.1297766"><ele></ele><time>2022-6-1T16:26:0Z</time></trkpt>
<trkpt lat="48.9497673" lon="3.1295338"><ele></ele><time>2022-6-1T16:26:3Z</time></trkpt>
<trkpt lat="48.9499062" lon="3.1293292"><ele></ele><time>2022-6-1T16:26:6Z</time></trkpt>
<trkpt lat="48.9500101" lon="3.1290716"><ele></ele><time>2022-6-1T16:26:9Z</time></trkpt>
<trkpt lat="48.9500893" lon="3.1288030"><ele></ele><time>2022-6-1T16:26:12Z</time></trkpt>
<trkpt lat="48.9502122" lon="3.1285709"><ele></ele><time>2022-6-1T16:26:15Z</time></trkpt>
<trkpt lat="48.9503572" lon="3.1283779"><ele></ele><time>2022-6-1T16:26:18Z</time></trkpt>
<trkpt lat="48.9505211" lon="3.1282156"><ele></ele><time>2022-6-1T16:26:21Z</time></trkpt>
<trkpt lat="48.9506728" lon="3.1280666"><ele></ele><time>2022-6-1T16:26:24Z</time></trkpt>
<trkpt lat="48.9508429" lon="3.1279182"><ele></ele><time>2022-6-1T16:26:27Z</time></trkpt>
<trkpt lat="48.9509893" lon="3.1277480"><ele></ele><time>2022-6-1T16:26:30Z</time></trkpt>
<trkpt lat="48.9511170" lon="3.1275421"><ele></ele><time>2022-6-1T16:26:33Z</time></trkpt>
<trkpt lat="48.9511355" lon="3.1272569"><ele></ele><time>2022-6-1T16:26:36Z</time></trkpt>
<trkpt lat="48.9511416" lon="3.1269544"><ele></ele><time>2022-6-1T16:26:39Z</time></trkpt>
<trkpt lat="48.9509618" lon="3.1267910"><ele></ele><time>2022-6-1T16:26:42Z</time></trkpt>
<trkpt lat="48.9508578" lon="3.1265351"><ele></ele><time>2022-6-1T16:26:45Z</time></trkpt>
<trkpt lat="48.9508202" lon="3.1262475"><ele></ele><time>2022-6-1T16:26:48Z</time></trkpt>
</trkseg></trk></gpx>